AAL6LG KBOS-LOWW
Flight info
| Callsign | AAL6LG |
|---|---|
| Flight time | N/A |
| Altitude | 33000 |
| Route | CELTK7 CELTK DCT FRILL DCT KANNI N97B SUPRY/M085F330 DCT 4650N DCT 4840N DCT 4830N DCT 4820N DCT 4815N DCT UMLER UN734 UMOXA/N0490F330 DCT KORER DCT OBATO DCT RESMI DCT TEPRI DCT POGZI DCT GELTA DCT LUVAL DCT LUPEN DCT KUNOD DCT VAVOR DCT INPUL DCT NEMAL |
| Aircraft | B77W/H-SDE1E2E3FGHIJ2J3J4J5M1RWXY/LB1D1 |
Departure
| Time | N/A |
|---|---|
| Airport | Boston Logan International Airport (KBOS) |
Arrival
| Time | 2026-04-25 21:42 |
|---|---|
| Airport | Vienna International Airport (LOWW) |
| Time | Latitude | Longitude | Altitude | Speed | Heading |
|---|---|---|---|---|---|
| 2026-04-25 14:25 | 42.58985 | -67.32925 | 33085 ft | 516 kts | 71° |
| 2026-04-25 14:26 | 42.59832 | -67.26524 | 33080 ft | 515 kts | 71° |
| 2026-04-25 14:26 | 42.61091 | -67.16955 | 33079 ft | 514 kts | 72° |
| 2026-04-25 14:27 | 42.62341 | -67.07396 | 33079 ft | 513 kts | 72° |
| 2026-04-25 14:27 | 42.63792 | -66.97978 | 33070 ft | 504 kts | 65° |
| 2026-04-25 14:28 | 42.66118 | -66.89094 | 33077 ft | 499 kts | 62° |
| 2026-04-25 14:28 | 42.68543 | -66.80256 | 33067 ft | 499 kts | 62° |
| 2026-04-25 14:29 | 42.70920 | -66.71447 | 33061 ft | 499 kts | 63° |
| 2026-04-25 14:29 | 42.73274 | -66.62583 | 33064 ft | 499 kts | 63° |
| 2026-04-25 14:30 | 42.75618 | -66.53688 | 33057 ft | 499 kts | 64° |
| 2026-04-25 14:30 | 42.79111 | -66.40372 | 33039 ft | 497 kts | 64° |
| 2026-04-25 14:31 | 42.81426 | -66.31514 | 33042 ft | 496 kts | 64° |
| 2026-04-25 14:31 | 42.83736 | -66.22650 | 33036 ft | 496 kts | 64° |
| 2026-04-25 14:32 | 42.86035 | -66.13792 | 33040 ft | 495 kts | 65° |
| 2026-04-25 14:32 | 42.88319 | -66.04954 | 33034 ft | 494 kts | 65° |
| 2026-04-25 14:33 | 42.90596 | -65.96117 | 33033 ft | 493 kts | 65° |
| 2026-04-25 14:33 | 42.92860 | -65.87295 | 33029 ft | 492 kts | 65° |
| 2026-04-25 14:34 | 42.95115 | -65.78475 | 33021 ft | 492 kts | 66° |
| 2026-04-25 14:34 | 42.97347 | -65.69714 | 33017 ft | 491 kts | 66° |
| 2026-04-25 14:35 | 42.99586 | -65.60890 | 33010 ft | 491 kts | 66° |
| 2026-04-25 14:35 | 43.01817 | -65.52065 | 33003 ft | 491 kts | 66° |
| 2026-04-25 14:36 | 43.04041 | -65.43237 | 33008 ft | 492 kts | 66° |
| 2026-04-25 14:36 | 43.06262 | -65.34385 | 33007 ft | 492 kts | 67° |
| 2026-04-25 14:37 | 43.08472 | -65.25543 | 33000 ft | 491 kts | 67° |
| 2026-04-25 14:37 | 43.10675 | -65.16696 | 33002 ft | 491 kts | 67° |
| 2026-04-25 14:38 | 43.12870 | -65.07845 | 32991 ft | 491 kts | 68° |
| 2026-04-25 14:38 | 43.15055 | -64.99001 | 33001 ft | 490 kts | 68° |
| 2026-04-25 14:39 | 43.17232 | -64.90158 | 32989 ft | 489 kts | 68° |
| 2026-04-25 14:39 | 43.19397 | -64.81325 | 32986 ft | 488 kts | 68° |
| 2026-04-25 14:40 | 43.21537 | -64.72567 | 32979 ft | 486 kts | 68° |
| 2026-04-25 14:40 | 43.23676 | -64.63777 | 32980 ft | 485 kts | 69° |
| 2026-04-25 14:41 | 43.25800 | -64.55014 | 32981 ft | 483 kts | 69° |
| 2026-04-25 14:41 | 43.27911 | -64.46271 | 32973 ft | 482 kts | 69° |
| 2026-04-25 14:42 | 43.29302 | -64.40491 | 32971 ft | 480 kts | 69° |
| 2026-04-25 14:42 | 43.32076 | -64.28923 | 32965 ft | 478 kts | 69° |
| 2026-04-25 14:43 | 43.34145 | -64.20254 | 32962 ft | 477 kts | 69° |
| 2026-04-25 14:43 | 43.36207 | -64.11585 | 32953 ft | 477 kts | 69° |
| 2026-04-25 14:44 | 43.38257 | -64.02932 | 32952 ft | 476 kts | 69° |
| 2026-04-25 14:44 | 43.40301 | -63.94270 | 32948 ft | 475 kts | 69° |
| 2026-04-25 14:45 | 43.42334 | -63.85619 | 32946 ft | 475 kts | 69° |
| 2026-04-25 14:45 | 43.44360 | -63.76969 | 32938 ft | 474 kts | 69° |
| 2026-04-25 14:46 | 43.46377 | -63.68320 | 32936 ft | 474 kts | 69° |
| 2026-04-25 14:46 | 43.48386 | -63.59672 | 32928 ft | 474 kts | 69° |
| 2026-04-25 14:47 | 43.49712 | -63.53947 | 32930 ft | 474 kts | 69° |
| 2026-04-25 14:47 | 43.52382 | -63.42373 | 32922 ft | 473 kts | 69° |
| 2026-04-25 14:48 | 43.54369 | -63.33719 | 32921 ft | 473 kts | 70° |
| 2026-04-25 14:48 | 43.56337 | -63.25113 | 32914 ft | 473 kts | 70° |
| 2026-04-25 14:49 | 43.58308 | -63.16462 | 32911 ft | 473 kts | 70° |
| 2026-04-25 14:49 | 43.60272 | -63.07805 | 32906 ft | 472 kts | 70° |
| 2026-04-25 14:50 | 43.62228 | -62.99153 | 32900 ft | 472 kts | 70° |
| 2026-04-25 14:50 | 43.64177 | -62.90493 | 32892 ft | 471 kts | 70° |
| 2026-04-25 14:51 | 43.66115 | -62.81843 | 32894 ft | 471 kts | 70° |
| 2026-04-25 14:51 | 43.68047 | -62.73193 | 32886 ft | 471 kts | 70° |
| 2026-04-25 14:52 | 43.69960 | -62.64592 | 32880 ft | 471 kts | 70° |
| 2026-04-25 14:52 | 43.71243 | -62.58804 | 32877 ft | 470 kts | 70° |
| 2026-04-25 14:53 | 43.73783 | -62.47298 | 32877 ft | 470 kts | 70° |
| 2026-04-25 14:53 | 43.75685 | -62.38642 | 32867 ft | 470 kts | 70° |
| 2026-04-25 14:54 | 43.77578 | -62.29990 | 32865 ft | 470 kts | 70° |
| 2026-04-25 14:54 | 43.79464 | -62.21337 | 32861 ft | 469 kts | 70° |
| 2026-04-25 14:55 | 43.81343 | -62.12681 | 32854 ft | 469 kts | 70° |
| 2026-04-25 14:55 | 43.83216 | -62.04017 | 32848 ft | 470 kts | 70° |
| 2026-04-25 14:56 | 43.84763 | -61.96828 | 32826 ft | 468 kts | 70° |
| 2026-04-25 14:56 | 43.86613 | -61.88203 | 32845 ft | 467 kts | 71° |
| 2026-04-25 14:57 | 43.88459 | -61.79566 | 32843 ft | 468 kts | 71° |
| 2026-04-25 14:57 | 43.90305 | -61.70893 | 32822 ft | 469 kts | 71° |
| 2026-04-25 14:58 | 43.92144 | -61.62213 | 32822 ft | 470 kts | 71° |
| 2026-04-25 14:58 | 43.93977 | -61.53524 | 32818 ft | 469 kts | 71° |
| 2026-04-25 14:59 | 43.95798 | -61.44850 | 32815 ft | 467 kts | 71° |
| 2026-04-25 14:59 | 43.97607 | -61.36203 | 32803 ft | 465 kts | 71° |
| 2026-04-25 15:00 | 43.99101 | -61.29035 | 32808 ft | 465 kts | 71° |
| 2026-04-25 15:02 | 44.06526 | -60.93032 | 32787 ft | 469 kts | 71° |
| 2026-04-25 15:02 | 44.08300 | -60.84328 | 32779 ft | 467 kts | 71° |
| 2026-04-25 15:03 | 44.10062 | -60.75650 | 32770 ft | 466 kts | 71° |
| 2026-04-25 15:03 | 44.11810 | -60.67001 | 32763 ft | 463 kts | 71° |
| 2026-04-25 15:04 | 44.13543 | -60.58394 | 32766 ft | 461 kts | 71° |
| 2026-04-25 15:04 | 44.15272 | -60.49773 | 32769 ft | 463 kts | 71° |
| 2026-04-25 15:05 | 44.17004 | -60.41100 | 32770 ft | 467 kts | 72° |
| 2026-04-25 15:06 | 44.19604 | -60.28000 | 32744 ft | 467 kts | 72° |
| 2026-04-25 15:06 | 44.21319 | -60.19304 | 32744 ft | 464 kts | 72° |
| 2026-04-25 15:07 | 44.23022 | -60.10634 | 32740 ft | 464 kts | 72° |
| 2026-04-25 15:07 | 44.24724 | -60.01941 | 32739 ft | 465 kts | 72° |
| 2026-04-25 15:08 | 44.26409 | -59.93287 | 32740 ft | 466 kts | 72° |
| 2026-04-25 15:08 | 44.28102 | -59.84555 | 32724 ft | 466 kts | 72° |
| 2026-04-25 15:09 | 44.29786 | -59.75831 | 32720 ft | 465 kts | 72° |
| 2026-04-25 15:09 | 44.32296 | -59.62751 | 32709 ft | 465 kts | 72° |
| 2026-04-25 15:10 | 44.33965 | -59.54009 | 32709 ft | 465 kts | 72° |
| 2026-04-25 15:11 | 44.36453 | -59.40896 | 32697 ft | 466 kts | 72° |
| 2026-04-25 15:11 | 44.38104 | -59.32146 | 32693 ft | 466 kts | 72° |
| 2026-04-25 15:12 | 44.40568 | -59.19013 | 32694 ft | 465 kts | 72° |
| 2026-04-25 15:12 | 44.41927 | -59.11728 | 32688 ft | 466 kts | 72° |
| 2026-04-25 15:13 | 44.44629 | -58.97160 | 32684 ft | 465 kts | 72° |
| 2026-04-25 15:14 | 44.46244 | -58.88398 | 32674 ft | 464 kts | 72° |
| 2026-04-25 15:14 | 44.47851 | -58.79640 | 32677 ft | 465 kts | 72° |
| 2026-04-25 15:15 | 44.49454 | -58.70861 | 32670 ft | 465 kts | 73° |
| 2026-04-25 15:15 | 44.51049 | -58.62083 | 32657 ft | 464 kts | 73° |
| 2026-04-25 15:16 | 44.52636 | -58.53306 | 32655 ft | 464 kts | 73° |
| 2026-04-25 15:16 | 44.55001 | -58.40152 | 32646 ft | 464 kts | 73° |
| 2026-04-25 15:17 | 44.57352 | -58.26986 | 32641 ft | 464 kts | 73° |
| 2026-04-25 15:18 | 44.58911 | -58.18200 | 32642 ft | 465 kts | 73° |
| 2026-04-25 15:18 | 44.61241 | -58.04989 | 32625 ft | 465 kts | 73° |
| 2026-04-25 15:19 | 44.62527 | -57.97650 | 32624 ft | 466 kts | 73° |
| 2026-04-25 15:19 | 44.64331 | -57.87313 | 32625 ft | 467 kts | 73° |
| 2026-04-25 15:20 | 44.65859 | -57.78507 | 32616 ft | 467 kts | 73° |
| 2026-04-25 15:20 | 44.67391 | -57.69633 | 32609 ft | 468 kts | 73° |
| 2026-04-25 15:21 | 44.68917 | -57.60754 | 32605 ft | 468 kts | 73° |
| 2026-04-25 15:21 | 44.70439 | -57.51852 | 32601 ft | 468 kts | 73° |
| 2026-04-25 15:22 | 44.71954 | -57.42942 | 32595 ft | 469 kts | 73° |
| 2026-04-25 15:22 | 44.73464 | -57.34020 | 32592 ft | 469 kts | 73° |
| 2026-04-25 15:23 | 44.74967 | -57.25091 | 32589 ft | 469 kts | 73° |
| 2026-04-25 15:23 | 44.76464 | -57.16152 | 32589 ft | 469 kts | 73° |
| 2026-04-25 15:24 | 44.77955 | -57.07203 | 32582 ft | 469 kts | 73° |
| 2026-04-25 15:24 | 44.79188 | -56.99763 | 32585 ft | 469 kts | 73° |
| 2026-04-25 15:25 | 44.80914 | -56.89300 | 32571 ft | 469 kts | 73° |
| 2026-04-25 15:25 | 44.82375 | -56.80393 | 32562 ft | 470 kts | 74° |
| 2026-04-25 15:26 | 44.83841 | -56.71407 | 32564 ft | 470 kts | 74° |
| 2026-04-25 15:26 | 44.85299 | -56.62425 | 32557 ft | 470 kts | 74° |
| 2026-04-25 15:27 | 44.86749 | -56.53439 | 32551 ft | 470 kts | 74° |
| 2026-04-25 15:28 | 44.88912 | -56.39949 | 32543 ft | 470 kts | 74° |
| 2026-04-25 15:28 | 44.90346 | -56.30943 | 32526 ft | 471 kts | 74° |
| 2026-04-25 15:29 | 44.91852 | -56.21970 | 32524 ft | 471 kts | 74° |
| 2026-04-25 15:29 | 44.92555 | -56.17433 | 32666 ft | 474 kts | 75° |
| 2026-04-25 15:29 | 44.93246 | -56.12888 | 32974 ft | 474 kts | 75° |
| 2026-04-25 15:29 | 44.93939 | -56.08336 | 33313 ft | 473 kts | 75° |
| 2026-04-25 15:30 | 44.94633 | -56.03797 | 33596 ft | 473 kts | 75° |
| 2026-04-25 15:30 | 44.95333 | -55.99252 | 33826 ft | 474 kts | 75° |
| 2026-04-25 15:30 | 44.96038 | -55.94702 | 34018 ft | 475 kts | 75° |
| 2026-04-25 15:30 | 44.96746 | -55.90135 | 34187 ft | 477 kts | 75° |
| 2026-04-25 15:31 | 44.97455 | -55.85555 | 34386 ft | 478 kts | 75° |
| 2026-04-25 15:31 | 44.98868 | -55.76392 | 34472 ft | 478 kts | 75° |
| 2026-04-25 15:32 | 45.00276 | -55.67206 | 34494 ft | 480 kts | 75° |
| 2026-04-25 15:32 | 45.01684 | -55.57961 | 34498 ft | 482 kts | 75° |
| 2026-04-25 15:33 | 45.02386 | -55.53332 | 34495 ft | 481 kts | 75° |
| 2026-04-25 15:34 | 45.07533 | -55.18960 | 34475 ft | 475 kts | 76° |
| 2026-04-25 15:35 | 45.09803 | -55.03563 | 34465 ft | 482 kts | 76° |
| 2026-04-25 15:36 | 45.11845 | -54.89573 | 34451 ft | 482 kts | 76° |
| 2026-04-25 15:36 | 45.13186 | -54.80315 | 34439 ft | 477 kts | 76° |
| 2026-04-25 15:37 | 45.14500 | -54.71189 | 34439 ft | 476 kts | 76° |
| 2026-04-25 15:37 | 45.15823 | -54.61956 | 34444 ft | 481 kts | 76° |
| 2026-04-25 15:38 | 45.16048 | -54.60385 | 34446 ft | 481 kts | 76° |
| 2026-04-25 15:39 | 45.21023 | -54.25063 | 34414 ft | 479 kts | 76° |
| 2026-04-25 15:40 | 45.22097 | -54.17339 | 34417 ft | 481 kts | 76° |
| 2026-04-25 15:40 | 45.23608 | -54.06403 | 34404 ft | 484 kts | 76° |
| 2026-04-25 15:41 | 45.24885 | -53.97087 | 34393 ft | 484 kts | 76° |
| 2026-04-25 15:41 | 45.26159 | -53.87722 | 34387 ft | 482 kts | 76° |
| 2026-04-25 15:42 | 45.27423 | -53.78374 | 34383 ft | 481 kts | 77° |
| 2026-04-25 15:42 | 45.28681 | -53.69024 | 34385 ft | 483 kts | 77° |
| 2026-04-25 15:43 | 45.29940 | -53.59609 | 34383 ft | 488 kts | 77° |
| 2026-04-25 15:43 | 45.31203 | -53.50095 | 34376 ft | 492 kts | 77° |
| 2026-04-25 15:44 | 45.32461 | -53.40542 | 34366 ft | 490 kts | 77° |
| 2026-04-25 15:44 | 45.33693 | -53.31111 | 34350 ft | 487 kts | 77° |
| 2026-04-25 15:45 | 45.34924 | -53.21655 | 34354 ft | 487 kts | 77° |
| 2026-04-25 15:45 | 45.35953 | -53.13695 | 34354 ft | 490 kts | 77° |
| 2026-04-25 15:46 | 45.37383 | -53.02558 | 34351 ft | 495 kts | 77° |
| 2026-04-25 15:46 | 45.38610 | -52.92919 | 34340 ft | 495 kts | 78° |
| 2026-04-25 15:47 | 45.39825 | -52.83294 | 34333 ft | 494 kts | 78° |
| 2026-04-25 15:47 | 45.41035 | -52.73664 | 34330 ft | 495 kts | 78° |
| 2026-04-25 15:48 | 45.42238 | -52.64019 | 34331 ft | 496 kts | 78° |
| 2026-04-25 15:48 | 45.43436 | -52.54344 | 34314 ft | 496 kts | 78° |
| 2026-04-25 15:49 | 45.44625 | -52.44654 | 34315 ft | 497 kts | 78° |
| 2026-04-25 15:49 | 45.45809 | -52.34948 | 34310 ft | 497 kts | 78° |
| 2026-04-25 15:50 | 45.46983 | -52.25251 | 34300 ft | 496 kts | 78° |
| 2026-04-25 15:50 | 45.48148 | -52.15558 | 34301 ft | 496 kts | 78° |
| 2026-04-25 15:51 | 45.49111 | -52.07503 | 34295 ft | 496 kts | 78° |
| 2026-04-25 15:51 | 45.50848 | -51.96354 | 34287 ft | 495 kts | 69° |
| 2026-04-25 15:52 | 45.53246 | -51.87166 | 34292 ft | 493 kts | 68° |
| 2026-04-25 15:52 | 45.55684 | -51.78013 | 34282 ft | 492 kts | 68° |
| 2026-04-25 15:53 | 45.58075 | -51.68859 | 34278 ft | 492 kts | 68° |
| 2026-04-25 15:53 | 45.60440 | -51.59671 | 34272 ft | 493 kts | 68° |
| 2026-04-25 15:54 | 45.62794 | -51.50466 | 34271 ft | 495 kts | 68° |
| 2026-04-25 15:54 | 45.65151 | -51.41218 | 34261 ft | 496 kts | 69° |
| 2026-04-25 15:55 | 45.67487 | -51.32018 | 34256 ft | 496 kts | 69° |
| 2026-04-25 15:55 | 45.69830 | -51.22757 | 34251 ft | 495 kts | 69° |
| 2026-04-25 15:56 | 45.72166 | -51.13490 | 34251 ft | 495 kts | 69° |
| 2026-04-25 15:56 | 45.74500 | -51.04187 | 34247 ft | 497 kts | 69° |
| 2026-04-25 15:57 | 45.76830 | -50.94865 | 34242 ft | 497 kts | 69° |
| 2026-04-25 15:57 | 45.79152 | -50.85537 | 34236 ft | 497 kts | 69° |
| 2026-04-25 15:58 | 45.81467 | -50.76200 | 34233 ft | 497 kts | 69° |
| 2026-04-25 15:58 | 45.83775 | -50.66850 | 34224 ft | 498 kts | 70° |
| 2026-04-25 15:59 | 45.86076 | -50.57491 | 34222 ft | 498 kts | 70° |
| 2026-04-25 15:59 | 45.88376 | -50.48097 | 34220 ft | 499 kts | 70° |
| 2026-04-25 16:00 | 45.89896 | -50.41865 | 34218 ft | 500 kts | 70° |
| 2026-04-25 16:00 | 45.92946 | -50.29312 | 34211 ft | 500 kts | 70° |
| 2026-04-25 16:01 | 45.95230 | -50.19865 | 34206 ft | 501 kts | 70° |
| 2026-04-25 16:01 | 45.97509 | -50.10398 | 34207 ft | 501 kts | 70° |
| 2026-04-25 16:02 | 45.99781 | -50.00925 | 34205 ft | 501 kts | 71° |
| 2026-04-25 16:02 | 46.02106 | -49.91473 | 34207 ft | 502 kts | 70° |
| 2026-04-25 16:03 | 46.04497 | -49.82020 | 34210 ft | 504 kts | 70° |
| 2026-04-25 16:03 | 46.06890 | -49.72531 | 34203 ft | 504 kts | 70° |
| 2026-04-25 16:04 | 46.09263 | -49.63019 | 34199 ft | 505 kts | 70° |
| 2026-04-25 16:04 | 46.11624 | -49.53483 | 34207 ft | 505 kts | 70° |
| 2026-04-25 16:05 | 46.13977 | -49.43941 | 34201 ft | 505 kts | 70° |
| 2026-04-25 16:06 | 46.17498 | -49.29593 | 34210 ft | 506 kts | 71° |
| 2026-04-25 16:06 | 46.19839 | -49.20005 | 34204 ft | 506 kts | 71° |
| 2026-04-25 16:07 | 46.22158 | -49.10466 | 34216 ft | 507 kts | 71° |
| 2026-04-25 16:07 | 46.24486 | -49.00847 | 34215 ft | 508 kts | 72° |
| 2026-04-25 16:08 | 46.26810 | -48.91206 | 34218 ft | 508 kts | 72° |
| 2026-04-25 16:08 | 46.29127 | -48.81545 | 34221 ft | 509 kts | 72° |
| 2026-04-25 16:09 | 46.31459 | -48.71786 | 34229 ft | 510 kts | 72° |
| 2026-04-25 16:09 | 46.33754 | -48.62136 | 34230 ft | 512 kts | 73° |
| 2026-04-25 16:10 | 46.36061 | -48.52396 | 34238 ft | 511 kts | 72° |
| 2026-04-25 16:10 | 46.38355 | -48.42669 | 34233 ft | 509 kts | 73° |
| 2026-04-25 16:11 | 46.40633 | -48.32958 | 34242 ft | 508 kts | 73° |
| 2026-04-25 16:11 | 46.42898 | -48.23267 | 34257 ft | 508 kts | 73° |
| 2026-04-25 16:12 | 46.45164 | -48.13523 | 34273 ft | 512 kts | 74° |
| 2026-04-25 16:12 | 46.47445 | -48.03674 | 34267 ft | 517 kts | 73° |
| 2026-04-25 16:13 | 46.49723 | -47.93793 | 34269 ft | 515 kts | 74° |
| 2026-04-25 16:13 | 46.51981 | -47.83966 | 34265 ft | 511 kts | 74° |
| 2026-04-25 16:14 | 46.54208 | -47.74214 | 34278 ft | 508 kts | 74° |
| 2026-04-25 16:14 | 46.56426 | -47.64460 | 34288 ft | 509 kts | 74° |
| 2026-04-25 16:15 | 46.58645 | -47.54650 | 34301 ft | 512 kts | 74° |
| 2026-04-25 16:15 | 46.60868 | -47.44784 | 34302 ft | 515 kts | 74° |
| 2026-04-25 16:16 | 46.63070 | -47.34967 | 34305 ft | 513 kts | 75° |
| 2026-04-25 16:16 | 46.65270 | -47.25121 | 34300 ft | 511 kts | 75° |
| 2026-04-25 16:17 | 46.67459 | -47.15264 | 34327 ft | 512 kts | 75° |
| 2026-04-25 16:17 | 46.69647 | -47.05373 | 34325 ft | 514 kts | 75° |
| 2026-04-25 16:18 | 46.71830 | -46.95452 | 34345 ft | 515 kts | 75° |
| 2026-04-25 16:18 | 46.74009 | -46.85507 | 34340 ft | 515 kts | 75° |
| 2026-04-25 16:19 | 46.76180 | -46.75553 | 34350 ft | 515 kts | 75° |
| 2026-04-25 16:19 | 46.78343 | -46.65585 | 34348 ft | 516 kts | 76° |
| 2026-04-25 16:20 | 46.81576 | -46.50593 | 34366 ft | 517 kts | 76° |
| 2026-04-25 16:21 | 46.84795 | -46.35563 | 34385 ft | 517 kts | 76° |
| 2026-04-25 16:21 | 46.86575 | -46.27204 | 34379 ft | 518 kts | 76° |
| 2026-04-25 16:22 | 46.89051 | -46.15517 | 34400 ft | 518 kts | 76° |
| 2026-04-25 16:22 | 46.91177 | -46.05428 | 34403 ft | 519 kts | 76° |
| 2026-04-25 16:23 | 46.93295 | -45.95325 | 34408 ft | 520 kts | 76° |
| 2026-04-25 16:23 | 46.95067 | -45.86836 | 34409 ft | 521 kts | 77° |
| 2026-04-25 16:24 | 46.97178 | -45.76679 | 34414 ft | 521 kts | 77° |
| 2026-04-25 16:24 | 46.99280 | -45.66509 | 34422 ft | 522 kts | 77° |
| 2026-04-25 16:25 | 47.01376 | -45.56319 | 34425 ft | 523 kts | 77° |
| 2026-04-25 16:25 | 47.03451 | -45.46177 | 34436 ft | 523 kts | 77° |
| 2026-04-25 16:26 | 47.05532 | -45.35960 | 34437 ft | 523 kts | 77° |
| 2026-04-25 16:26 | 47.07604 | -45.25731 | 34448 ft | 523 kts | 77° |
| 2026-04-25 16:27 | 47.09670 | -45.15474 | 34454 ft | 524 kts | 77° |
| 2026-04-25 16:27 | 47.11729 | -45.05203 | 34460 ft | 525 kts | 77° |
| 2026-04-25 16:28 | 47.13779 | -44.94922 | 34464 ft | 525 kts | 77° |
| 2026-04-25 16:28 | 47.15826 | -44.84598 | 34462 ft | 526 kts | 77° |
| 2026-04-25 16:29 | 47.17865 | -44.74264 | 34468 ft | 526 kts | 77° |
| 2026-04-25 16:29 | 47.19894 | -44.63924 | 34480 ft | 527 kts | 77° |
| 2026-04-25 16:30 | 47.21917 | -44.53563 | 34476 ft | 527 kts | 77° |
| 2026-04-25 16:30 | 47.23927 | -44.43208 | 34482 ft | 527 kts | 77° |
| 2026-04-25 16:31 | 47.25933 | -44.32821 | 34482 ft | 527 kts | 77° |
| 2026-04-25 16:31 | 47.27929 | -44.22426 | 34492 ft | 527 kts | 77° |
| 2026-04-25 16:32 | 47.29916 | -44.12020 | 34489 ft | 527 kts | 77° |
| 2026-04-25 16:32 | 47.31881 | -44.01677 | 34498 ft | 527 kts | 77° |
| 2026-04-25 16:33 | 47.33849 | -43.91257 | 34501 ft | 528 kts | 77° |
| 2026-04-25 16:33 | 47.35808 | -43.80829 | 34508 ft | 528 kts | 77° |
| 2026-04-25 16:34 | 47.37756 | -43.70403 | 34507 ft | 527 kts | 77° |
| 2026-04-25 16:34 | 47.39705 | -43.59914 | 34513 ft | 526 kts | 77° |
| 2026-04-25 16:35 | 47.41614 | -43.49577 | 34501 ft | 526 kts | 77° |
| 2026-04-25 16:35 | 47.43527 | -43.39162 | 34512 ft | 524 kts | 77° |
| 2026-04-25 16:36 | 47.45422 | -43.28787 | 34521 ft | 522 kts | 77° |
| 2026-04-25 16:36 | 47.47305 | -43.18420 | 34528 ft | 522 kts | 77° |
| 2026-04-25 16:37 | 47.49176 | -43.08059 | 34523 ft | 522 kts | 77° |
| 2026-04-25 16:37 | 47.51039 | -42.97681 | 34521 ft | 521 kts | 77° |
| 2026-04-25 16:38 | 47.52889 | -42.87323 | 34525 ft | 521 kts | 77° |
| 2026-04-25 16:38 | 47.54728 | -42.76963 | 34529 ft | 520 kts | 77° |
| 2026-04-25 16:39 | 47.56558 | -42.66591 | 34534 ft | 520 kts | 77° |
| 2026-04-25 16:39 | 47.58363 | -42.56303 | 34534 ft | 520 kts | 77° |
| 2026-04-25 16:40 | 47.60175 | -42.45914 | 34539 ft | 520 kts | 77° |
| 2026-04-25 16:40 | 47.61978 | -42.35515 | 34536 ft | 520 kts | 77° |
| 2026-04-25 16:41 | 47.63769 | -42.25128 | 34548 ft | 520 kts | 77° |
| 2026-04-25 16:41 | 47.66438 | -42.09533 | 34535 ft | 520 kts | 77° |
| 2026-04-25 16:42 | 47.68207 | -41.99118 | 34556 ft | 520 kts | 77° |
| 2026-04-25 16:42 | 47.69966 | -41.88694 | 34554 ft | 520 kts | 77° |
| 2026-04-25 16:43 | 47.71714 | -41.78278 | 34561 ft | 521 kts | 77° |
| 2026-04-25 16:43 | 47.73458 | -41.67826 | 34555 ft | 521 kts | 77° |
| 2026-04-25 16:44 | 47.75191 | -41.57372 | 34565 ft | 521 kts | 77° |
| 2026-04-25 16:44 | 47.76912 | -41.46923 | 34564 ft | 521 kts | 77° |
| 2026-04-25 16:45 | 47.78627 | -41.36448 | 34573 ft | 522 kts | 77° |
| 2026-04-25 16:45 | 47.80332 | -41.25975 | 34570 ft | 520 kts | 77° |
| 2026-04-25 16:46 | 47.82008 | -41.15608 | 34571 ft | 518 kts | 77° |
| 2026-04-25 16:46 | 47.83130 | -41.08637 | 34573 ft | 517 kts | 77° |
| 2026-04-25 16:47 | 47.85343 | -40.94790 | 34584 ft | 516 kts | 77° |
| 2026-04-25 16:47 | 47.86993 | -40.84395 | 34579 ft | 515 kts | 77° |
| 2026-04-25 16:48 | 47.88629 | -40.74017 | 34590 ft | 515 kts | 77° |
| 2026-04-25 16:48 | 47.90257 | -40.63629 | 34586 ft | 515 kts | 78° |
| 2026-04-25 16:49 | 47.91875 | -40.53237 | 34595 ft | 514 kts | 78° |
| 2026-04-25 16:49 | 47.93481 | -40.42855 | 34591 ft | 513 kts | 78° |
| 2026-04-25 16:50 | 47.95075 | -40.32483 | 34601 ft | 513 kts | 78° |
| 2026-04-25 16:50 | 47.96661 | -40.22092 | 34599 ft | 514 kts | 78° |
| 2026-04-25 16:51 | 47.98239 | -40.11695 | 34607 ft | 514 kts | 78° |
| 2026-04-25 16:51 | 47.99289 | -40.04739 | 34605 ft | 514 kts | 78° |
| 2026-04-25 16:52 | 48.00516 | -39.90708 | 34618 ft | 512 kts | 88° |
| 2026-04-25 16:52 | 48.00903 | -39.80088 | 34615 ft | 512 kts | 89° |
| 2026-04-25 16:53 | 48.01496 | -39.64150 | 34619 ft | 513 kts | 88° |
| 2026-04-25 16:54 | 48.01914 | -39.53588 | 34621 ft | 513 kts | 88° |
| 2026-04-25 16:54 | 48.02332 | -39.42962 | 34626 ft | 513 kts | 88° |
| 2026-04-25 16:55 | 48.02739 | -39.32331 | 34624 ft | 513 kts | 88° |
| 2026-04-25 16:55 | 48.03135 | -39.21697 | 34624 ft | 512 kts | 88° |
| 2026-04-25 16:56 | 48.03519 | -39.11084 | 34633 ft | 511 kts | 88° |
| 2026-04-25 16:56 | 48.03892 | -39.00496 | 34634 ft | 510 kts | 88° |
| 2026-04-25 16:57 | 48.04256 | -38.89901 | 34639 ft | 510 kts | 88° |
| 2026-04-25 16:57 | 48.04609 | -38.79329 | 34638 ft | 509 kts | 88° |
| 2026-04-25 16:58 | 48.04953 | -38.68765 | 34649 ft | 509 kts | 88° |
| 2026-04-25 16:58 | 48.05287 | -38.58194 | 34649 ft | 508 kts | 88° |
| 2026-04-25 16:59 | 48.05608 | -38.47729 | 34654 ft | 507 kts | 89° |
| 2026-04-25 16:59 | 48.05921 | -38.37193 | 34656 ft | 507 kts | 89° |
| 2026-04-25 17:00 | 48.06224 | -38.26680 | 34662 ft | 506 kts | 89° |
| 2026-04-25 17:00 | 48.06517 | -38.16178 | 34664 ft | 505 kts | 89° |
| 2026-04-25 17:01 | 48.06801 | -38.05686 | 34664 ft | 505 kts | 89° |
| 2026-04-25 17:01 | 48.07074 | -37.95198 | 34680 ft | 504 kts | 89° |
| 2026-04-25 17:02 | 48.07338 | -37.84732 | 34684 ft | 504 kts | 89° |
| 2026-04-25 17:02 | 48.07592 | -37.74265 | 34681 ft | 503 kts | 89° |
| 2026-04-25 17:03 | 48.07836 | -37.63802 | 34678 ft | 503 kts | 89° |
| 2026-04-25 17:03 | 48.08071 | -37.53357 | 34683 ft | 503 kts | 89° |
| 2026-04-25 17:04 | 48.08297 | -37.42907 | 34698 ft | 503 kts | 89° |
| 2026-04-25 17:04 | 48.08512 | -37.32456 | 34697 ft | 503 kts | 89° |
| 2026-04-25 17:05 | 48.08718 | -37.22005 | 34696 ft | 502 kts | 89° |
| 2026-04-25 17:05 | 48.09009 | -37.06341 | 34705 ft | 503 kts | 90° |
| 2026-04-25 17:06 | 48.09190 | -36.95952 | 34711 ft | 503 kts | 90° |
| 2026-04-25 17:06 | 48.09364 | -36.85501 | 34717 ft | 503 kts | 90° |
| 2026-04-25 17:07 | 48.09527 | -36.75041 | 34725 ft | 503 kts | 90° |
| 2026-04-25 17:07 | 48.09681 | -36.64580 | 34723 ft | 503 kts | 90° |
| 2026-04-25 17:08 | 48.09803 | -36.55815 | 34735 ft | 503 kts | 90° |
| 2026-04-25 17:08 | 48.09940 | -36.45345 | 34735 ft | 504 kts | 90° |
| 2026-04-25 17:09 | 48.10066 | -36.34940 | 34743 ft | 504 kts | 90° |
| 2026-04-25 17:09 | 48.10185 | -36.24455 | 34742 ft | 504 kts | 90° |
| 2026-04-25 17:10 | 48.10293 | -36.13974 | 34751 ft | 504 kts | 90° |
| 2026-04-25 17:10 | 48.10310 | -36.12207 | 34758 ft | 504 kts | 90° |
| 2026-04-25 17:12 | 48.10638 | -35.71027 | 34778 ft | 504 kts | 91° |
| 2026-04-25 17:12 | 48.10698 | -35.60530 | 34772 ft | 505 kts | 91° |
| 2026-04-25 17:13 | 48.10732 | -35.53572 | 34782 ft | 505 kts | 91° |
| 2026-04-25 17:13 | 48.10789 | -35.39578 | 34783 ft | 505 kts | 91° |
| 2026-04-25 17:14 | 48.10820 | -35.29061 | 34795 ft | 506 kts | 91° |
| 2026-04-25 17:14 | 48.10842 | -35.18542 | 34799 ft | 506 kts | 91° |
| 2026-04-25 17:15 | 48.10854 | -35.08015 | 34819 ft | 506 kts | 91° |
| 2026-04-25 17:15 | 48.10857 | -34.97477 | 34799 ft | 506 kts | 91° |
| 2026-04-25 17:16 | 48.10849 | -34.86945 | 34804 ft | 506 kts | 92° |
| 2026-04-25 17:16 | 48.10832 | -34.76412 | 34811 ft | 506 kts | 92° |
| 2026-04-25 17:17 | 48.10806 | -34.65865 | 34822 ft | 507 kts | 92° |
| 2026-04-25 17:17 | 48.10770 | -34.55318 | 34822 ft | 507 kts | 92° |
| 2026-04-25 17:18 | 48.10725 | -34.44765 | 34831 ft | 507 kts | 92° |
| 2026-04-25 17:18 | 48.10669 | -34.34269 | 34836 ft | 507 kts | 92° |
| 2026-04-25 17:19 | 48.10604 | -34.23713 | 34841 ft | 507 kts | 92° |
| 2026-04-25 17:19 | 48.10530 | -34.13152 | 34846 ft | 507 kts | 92° |
| 2026-04-25 17:20 | 48.10445 | -34.02590 | 34856 ft | 508 kts | 92° |
| 2026-04-25 17:20 | 48.10351 | -33.92033 | 34852 ft | 508 kts | 92° |
| 2026-04-25 17:21 | 48.10247 | -33.81458 | 34858 ft | 508 kts | 93° |
| 2026-04-25 17:21 | 48.10134 | -33.70886 | 34857 ft | 508 kts | 93° |
| 2026-04-25 17:22 | 48.10053 | -33.63883 | 34877 ft | 508 kts | 93° |
| 2026-04-25 17:22 | 48.09878 | -33.49793 | 34874 ft | 509 kts | 93° |
| 2026-04-25 17:23 | 48.09735 | -33.39195 | 34895 ft | 509 kts | 93° |
| 2026-04-25 17:23 | 48.09583 | -33.28608 | 34893 ft | 509 kts | 93° |
| 2026-04-25 17:24 | 48.09420 | -33.18016 | 34899 ft | 509 kts | 93° |
| 2026-04-25 17:24 | 48.09248 | -33.07420 | 34891 ft | 509 kts | 94° |
| 2026-04-25 17:25 | 48.09066 | -32.96833 | 34911 ft | 509 kts | 94° |
| 2026-04-25 17:25 | 48.08875 | -32.86239 | 34911 ft | 510 kts | 94° |
| 2026-04-25 17:26 | 48.08673 | -32.75623 | 34918 ft | 510 kts | 94° |
| 2026-04-25 17:26 | 48.08461 | -32.65012 | 34921 ft | 510 kts | 94° |
| 2026-04-25 17:27 | 48.08241 | -32.54469 | 34935 ft | 510 kts | 94° |
| 2026-04-25 17:27 | 48.08088 | -32.47373 | 34926 ft | 510 kts | 94° |
| 2026-04-25 17:28 | 48.07770 | -32.33248 | 34941 ft | 510 kts | 94° |
| 2026-04-25 17:28 | 48.07519 | -32.22635 | 34938 ft | 511 kts | 94° |
| 2026-04-25 17:29 | 48.07303 | -32.13814 | 34951 ft | 511 kts | 94° |
| 2026-04-25 17:29 | 48.07034 | -32.03173 | 34952 ft | 511 kts | 94° |
| 2026-04-25 17:30 | 48.06755 | -31.92545 | 34959 ft | 512 kts | 95° |
| 2026-04-25 17:30 | 48.06418 | -31.80187 | 34959 ft | 512 kts | 95° |
| 2026-04-25 17:31 | 48.06169 | -31.71336 | 34971 ft | 512 kts | 95° |
| 2026-04-25 17:31 | 48.05860 | -31.60688 | 34968 ft | 513 kts | 95° |
| 2026-04-25 17:32 | 48.05541 | -31.50047 | 34979 ft | 513 kts | 95° |
| 2026-04-25 17:32 | 48.05213 | -31.39398 | 34980 ft | 513 kts | 95° |
| 2026-04-25 17:33 | 48.04874 | -31.28736 | 34990 ft | 514 kts | 95° |
| 2026-04-25 17:33 | 48.04701 | -31.23403 | 34857 ft | 515 kts | 96° |
| 2026-04-25 17:33 | 48.04524 | -31.18040 | 34925 ft | 517 kts | 96° |
| 2026-04-25 17:34 | 48.04160 | -31.07266 | 34993 ft | 520 kts | 96° |
| 2026-04-25 17:34 | 48.03788 | -30.96479 | 34992 ft | 518 kts | 96° |
| 2026-04-25 17:35 | 48.03407 | -30.85742 | 35003 ft | 518 kts | 96° |
| 2026-04-25 17:35 | 48.03015 | -30.75003 | 35005 ft | 518 kts | 96° |
| 2026-04-25 17:36 | 48.02612 | -30.64250 | 35012 ft | 519 kts | 96° |
| 2026-04-25 17:36 | 48.02200 | -30.53490 | 35016 ft | 519 kts | 96° |
| 2026-04-25 17:37 | 48.01778 | -30.42740 | 35019 ft | 518 kts | 96° |
| 2026-04-25 17:37 | 48.01348 | -30.32053 | 35022 ft | 519 kts | 96° |
| 2026-04-25 17:38 | 48.00978 | -30.23046 | 35022 ft | 519 kts | 96° |
| 2026-04-25 17:38 | 48.00454 | -30.10556 | 35024 ft | 518 kts | 96° |
| 2026-04-25 17:39 | 48.00040 | -29.99807 | 35034 ft | 518 kts | 93° |
| 2026-04-25 17:39 | 48.00361 | -29.89027 | 35043 ft | 520 kts | 88° |
| 2026-04-25 17:40 | 48.00876 | -29.78230 | 35040 ft | 521 kts | 87° |
| 2026-04-25 17:40 | 48.01363 | -29.67442 | 35040 ft | 520 kts | 88° |
| 2026-04-25 17:41 | 48.01808 | -29.56650 | 35043 ft | 520 kts | 88° |
| 2026-04-25 17:41 | 48.02228 | -29.45862 | 35046 ft | 520 kts | 88° |
| 2026-04-25 17:42 | 48.02635 | -29.35134 | 35051 ft | 520 kts | 88° |
| 2026-04-25 17:42 | 48.03037 | -29.24343 | 35055 ft | 520 kts | 88° |
| 2026-04-25 17:43 | 48.03431 | -29.13549 | 35053 ft | 520 kts | 88° |
| 2026-04-25 17:43 | 48.03814 | -29.02759 | 35057 ft | 520 kts | 88° |
| 2026-04-25 17:44 | 48.04186 | -28.91975 | 35061 ft | 519 kts | 88° |
| 2026-04-25 17:44 | 48.04548 | -28.81207 | 35059 ft | 518 kts | 88° |
| 2026-04-25 17:45 | 48.04841 | -28.72269 | 35065 ft | 518 kts | 88° |
| 2026-04-25 17:45 | 48.05241 | -28.59681 | 35064 ft | 518 kts | 88° |
| 2026-04-25 17:46 | 48.05569 | -28.49014 | 35069 ft | 517 kts | 88° |
| 2026-04-25 17:46 | 48.05890 | -28.38282 | 35070 ft | 517 kts | 88° |
| 2026-04-25 17:47 | 48.06200 | -28.27553 | 35075 ft | 516 kts | 88° |
| 2026-04-25 17:47 | 48.06501 | -28.16816 | 35073 ft | 516 kts | 88° |
| 2026-04-25 17:48 | 48.06932 | -28.00729 | 35075 ft | 516 kts | 88° |
| 2026-04-25 17:49 | 48.07207 | -27.90022 | 35078 ft | 515 kts | 88° |
| 2026-04-25 17:49 | 48.07471 | -27.79308 | 35080 ft | 515 kts | 88° |
| 2026-04-25 17:50 | 48.07724 | -27.68676 | 35082 ft | 515 kts | 88° |
| 2026-04-25 17:50 | 48.07969 | -27.57973 | 35085 ft | 515 kts | 88° |
| 2026-04-25 17:51 | 48.08204 | -27.47269 | 35083 ft | 515 kts | 88° |
| 2026-04-25 17:51 | 48.08429 | -27.36567 | 35086 ft | 515 kts | 88° |
| 2026-04-25 17:52 | 48.08643 | -27.25863 | 35086 ft | 515 kts | 88° |
| 2026-04-25 17:52 | 48.08848 | -27.15166 | 35087 ft | 515 kts | 88° |
| 2026-04-25 17:53 | 48.09043 | -27.04457 | 35088 ft | 515 kts | 88° |
| 2026-04-25 17:53 | 48.09228 | -26.93746 | 35084 ft | 515 kts | 89° |
| 2026-04-25 17:54 | 48.09403 | -26.83040 | 35084 ft | 514 kts | 89° |
| 2026-04-25 17:54 | 48.09568 | -26.72348 | 35085 ft | 514 kts | 89° |
| 2026-04-25 17:55 | 48.09723 | -26.61653 | 35090 ft | 514 kts | 89° |
| 2026-04-25 17:55 | 48.09868 | -26.50959 | 35090 ft | 514 kts | 89° |
| 2026-04-25 17:56 | 48.10003 | -26.40259 | 35090 ft | 514 kts | 89° |
| 2026-04-25 17:56 | 48.10129 | -26.29554 | 35088 ft | 514 kts | 89° |
| 2026-04-25 17:57 | 48.10244 | -26.18875 | 35095 ft | 513 kts | 89° |
| 2026-04-25 17:57 | 48.10349 | -26.08203 | 35097 ft | 513 kts | 89° |
| 2026-04-25 17:58 | 48.10444 | -25.97584 | 35094 ft | 513 kts | 89° |
| 2026-04-25 17:58 | 48.10529 | -25.86921 | 35095 ft | 513 kts | 89° |
| 2026-04-25 17:59 | 48.10605 | -25.76182 | 35094 ft | 513 kts | 89° |
| 2026-04-25 17:59 | 48.10671 | -25.65513 | 35095 ft | 512 kts | 89° |
| 2026-04-25 18:00 | 48.10726 | -25.54936 | 35095 ft | 512 kts | 89° |
| 2026-04-25 18:00 | 48.10772 | -25.44288 | 35097 ft | 512 kts | 89° |
| 2026-04-25 18:01 | 48.10808 | -25.33570 | 35099 ft | 512 kts | 89° |
| 2026-04-25 18:01 | 48.10834 | -25.22998 | 35096 ft | 511 kts | 89° |
| 2026-04-25 18:02 | 48.10850 | -25.12306 | 35095 ft | 510 kts | 89° |
| 2026-04-25 18:02 | 48.10856 | -25.01755 | 35099 ft | 510 kts | 89° |
| 2026-04-25 18:03 | 48.10853 | -24.91133 | 35100 ft | 510 kts | 89° |
| 2026-04-25 18:03 | 48.10840 | -24.80519 | 35088 ft | 510 kts | 89° |
| 2026-04-25 18:04 | 48.10817 | -24.69903 | 35100 ft | 510 kts | 89° |
| 2026-04-25 18:04 | 48.10784 | -24.59278 | 35103 ft | 511 kts | 89° |
| 2026-04-25 18:05 | 48.10742 | -24.48643 | 35097 ft | 511 kts | 89° |
| 2026-04-25 18:05 | 48.10690 | -24.38005 | 35091 ft | 511 kts | 89° |
| 2026-04-25 18:06 | 48.10627 | -24.27361 | 35091 ft | 511 kts | 89° |
| 2026-04-25 18:06 | 48.10555 | -24.16708 | 35091 ft | 512 kts | 89° |
| 2026-04-25 18:07 | 48.10474 | -24.06071 | 35091 ft | 512 kts | 89° |
| 2026-04-25 18:07 | 48.10383 | -23.95481 | 35091 ft | 512 kts | 89° |
| 2026-04-25 18:08 | 48.10281 | -23.84829 | 35089 ft | 512 kts | 89° |
| 2026-04-25 18:08 | 48.10169 | -23.74163 | 35088 ft | 512 kts | 89° |
| 2026-04-25 18:09 | 48.10048 | -23.63514 | 35088 ft | 511 kts | 89° |
| 2026-04-25 18:09 | 48.09917 | -23.52899 | 35088 ft | 510 kts | 89° |
| 2026-04-25 18:10 | 48.09777 | -23.42295 | 35084 ft | 509 kts | 89° |
| 2026-04-25 18:10 | 48.09627 | -23.31698 | 35086 ft | 509 kts | 89° |
| 2026-04-25 18:11 | 48.09468 | -23.21130 | 35088 ft | 508 kts | 89° |
| 2026-04-25 18:11 | 48.09299 | -23.10562 | 35084 ft | 508 kts | 90° |
| 2026-04-25 18:12 | 48.09121 | -23.00012 | 35086 ft | 507 kts | 90° |
| 2026-04-25 18:12 | 48.08933 | -22.89471 | 35083 ft | 507 kts | 90° |
| 2026-04-25 18:13 | 48.08736 | -22.78935 | 35082 ft | 507 kts | 90° |
| 2026-04-25 18:13 | 48.08529 | -22.68401 | 35084 ft | 506 kts | 90° |
| 2026-04-25 18:14 | 48.08239 | -22.54403 | 35082 ft | 506 kts | 90° |
| 2026-04-25 18:14 | 48.07972 | -22.42178 | 35080 ft | 506 kts | 90° |
| 2026-04-25 18:15 | 48.07772 | -22.33371 | 35078 ft | 505 kts | 91° |
| 2026-04-25 18:15 | 48.07524 | -22.22872 | 35082 ft | 505 kts | 91° |
| 2026-04-25 18:16 | 48.07269 | -22.12457 | 35086 ft | 504 kts | 91° |
| 2026-04-25 18:17 | 48.06866 | -21.96757 | 35081 ft | 503 kts | 91° |
| 2026-04-25 18:17 | 48.06586 | -21.86308 | 35076 ft | 503 kts | 92° |
| 2026-04-25 18:18 | 48.06394 | -21.79332 | 35080 ft | 502 kts | 92° |
| 2026-04-25 18:20 | 48.05049 | -21.34208 | 35078 ft | 501 kts | 93° |
| 2026-04-25 18:20 | 48.04714 | -21.23814 | 35080 ft | 501 kts | 93° |
| 2026-04-25 18:21 | 48.04370 | -21.13429 | 35078 ft | 500 kts | 93° |
| 2026-04-25 18:21 | 48.04017 | -21.03053 | 35076 ft | 500 kts | 94° |
| 2026-04-25 18:22 | 48.03654 | -20.92682 | 35076 ft | 500 kts | 94° |
| 2026-04-25 18:22 | 48.03283 | -20.82312 | 35077 ft | 500 kts | 94° |
| 2026-04-25 18:23 | 48.02902 | -20.71954 | 35074 ft | 499 kts | 94° |
| 2026-04-25 18:23 | 48.02512 | -20.61604 | 35075 ft | 499 kts | 94° |
| 2026-04-25 18:24 | 48.02113 | -20.51264 | 35072 ft | 499 kts | 95° |
| 2026-04-25 18:24 | 48.01705 | -20.40923 | 35076 ft | 499 kts | 95° |
| 2026-04-25 18:25 | 48.01288 | -20.30589 | 35078 ft | 498 kts | 95° |
| 2026-04-25 18:25 | 48.00865 | -20.20322 | 35080 ft | 498 kts | 95° |
| 2026-04-25 18:26 | 48.00430 | -20.09994 | 35079 ft | 498 kts | 95° |
| 2026-04-25 18:26 | 48.00011 | -19.99672 | 35078 ft | 498 kts | 93° |
| 2026-04-25 18:27 | 48.00142 | -19.89314 | 35084 ft | 500 kts | 90° |
| 2026-04-25 18:27 | 48.00399 | -19.78947 | 35083 ft | 500 kts | 90° |
| 2026-04-25 18:28 | 48.00634 | -19.68575 | 35087 ft | 499 kts | 90° |
| 2026-04-25 18:28 | 48.00834 | -19.58212 | 35087 ft | 499 kts | 90° |
| 2026-04-25 18:29 | 48.01101 | -19.42667 | 35092 ft | 499 kts | 90° |
| 2026-04-25 18:30 | 48.01428 | -19.21915 | 35094 ft | 500 kts | 91° |
| 2026-04-25 18:30 | 48.01578 | -19.11535 | 35097 ft | 500 kts | 91° |
| 2026-04-25 18:31 | 48.01718 | -19.01211 | 35101 ft | 499 kts | 91° |
| 2026-04-25 18:31 | 48.01849 | -18.90901 | 35103 ft | 499 kts | 91° |
| 2026-04-25 18:32 | 48.01971 | -18.80516 | 35105 ft | 499 kts | 91° |
| 2026-04-25 18:32 | 48.02084 | -18.70150 | 35111 ft | 500 kts | 91° |
| 2026-04-25 18:33 | 48.02188 | -18.59776 | 35106 ft | 499 kts | 91° |
| 2026-04-25 18:33 | 48.02282 | -18.49400 | 35112 ft | 499 kts | 92° |
| 2026-04-25 18:34 | 48.02367 | -18.39018 | 35111 ft | 500 kts | 92° |
| 2026-04-25 18:34 | 48.02442 | -18.28635 | 35116 ft | 499 kts | 92° |
| 2026-04-25 18:35 | 48.02509 | -18.18256 | 35120 ft | 499 kts | 92° |
| 2026-04-25 18:35 | 48.02565 | -18.07878 | 35122 ft | 500 kts | 92° |
| 2026-04-25 18:36 | 48.02613 | -17.97504 | 35123 ft | 499 kts | 92° |
| 2026-04-25 18:36 | 48.02651 | -17.87189 | 35128 ft | 499 kts | 93° |
| 2026-04-25 18:37 | 48.02680 | -17.76744 | 35126 ft | 499 kts | 93° |
| 2026-04-25 18:37 | 48.02699 | -17.66445 | 35134 ft | 499 kts | 93° |
| 2026-04-25 18:38 | 48.02709 | -17.56071 | 35138 ft | 499 kts | 93° |
| 2026-04-25 18:38 | 48.02710 | -17.45694 | 35136 ft | 499 kts | 94° |
| 2026-04-25 18:39 | 48.02702 | -17.35316 | 35137 ft | 499 kts | 94° |
| 2026-04-25 18:39 | 48.02684 | -17.24941 | 35141 ft | 499 kts | 94° |
| 2026-04-25 18:40 | 48.02656 | -17.14567 | 35147 ft | 499 kts | 94° |
| 2026-04-25 18:40 | 48.02620 | -17.04188 | 35147 ft | 500 kts | 94° |
| 2026-04-25 18:41 | 48.02574 | -16.93817 | 35146 ft | 500 kts | 94° |
| 2026-04-25 18:41 | 48.02519 | -16.83440 | 35151 ft | 499 kts | 95° |
| 2026-04-25 18:42 | 48.02477 | -16.76498 | 35153 ft | 499 kts | 95° |
| 2026-04-25 18:42 | 48.02380 | -16.62689 | 35156 ft | 499 kts | 95° |
| 2026-04-25 18:43 | 48.02297 | -16.52314 | 35159 ft | 500 kts | 95° |
| 2026-04-25 18:43 | 48.02204 | -16.41929 | 35161 ft | 499 kts | 95° |
| 2026-04-25 18:44 | 48.02102 | -16.31566 | 35163 ft | 500 kts | 95° |
| 2026-04-25 18:44 | 48.01991 | -16.21243 | 35166 ft | 500 kts | 95° |
| 2026-04-25 18:45 | 48.01871 | -16.10859 | 35167 ft | 500 kts | 95° |
| 2026-04-25 18:45 | 48.01741 | -16.00470 | 35171 ft | 500 kts | 96° |
| 2026-04-25 18:46 | 48.01601 | -15.90066 | 35172 ft | 500 kts | 96° |
| 2026-04-25 18:46 | 48.01452 | -15.79674 | 35175 ft | 501 kts | 96° |
| 2026-04-25 18:47 | 48.01294 | -15.69284 | 35172 ft | 501 kts | 96° |
| 2026-04-25 18:47 | 48.01126 | -15.58877 | 35180 ft | 501 kts | 96° |
| 2026-04-25 18:48 | 48.00949 | -15.48477 | 35179 ft | 501 kts | 96° |
| 2026-04-25 18:48 | 48.00764 | -15.38145 | 35191 ft | 501 kts | 96° |
| 2026-04-25 18:49 | 48.00567 | -15.27735 | 35175 ft | 501 kts | 96° |
| 2026-04-25 18:49 | 48.00362 | -15.17317 | 35187 ft | 501 kts | 96° |
| 2026-04-25 18:50 | 48.00148 | -15.06912 | 35183 ft | 501 kts | 96° |
| 2026-04-25 18:50 | 47.99900 | -14.96508 | 35186 ft | 501 kts | 98° |
| 2026-04-25 18:51 | 47.99570 | -14.89574 | 35189 ft | 500 kts | 99° |
| 2026-04-25 18:51 | 47.98746 | -14.75810 | 35196 ft | 500 kts | 99° |
| 2026-04-25 18:52 | 47.98141 | -14.65475 | 35192 ft | 500 kts | 99° |
| 2026-04-25 18:52 | 47.97558 | -14.55126 | 35198 ft | 501 kts | 99° |
| 2026-04-25 18:53 | 47.96974 | -14.44757 | 35196 ft | 501 kts | 99° |
| 2026-04-25 18:53 | 47.96380 | -14.34395 | 35199 ft | 501 kts | 99° |
| 2026-04-25 18:54 | 47.95473 | -14.18919 | 35202 ft | 502 kts | 99° |
| 2026-04-25 18:55 | 47.94852 | -14.08551 | 35205 ft | 502 kts | 99° |
| 2026-04-25 18:55 | 47.94222 | -13.98181 | 35204 ft | 502 kts | 99° |
| 2026-04-25 18:56 | 47.93584 | -13.87830 | 35208 ft | 502 kts | 99° |
| 2026-04-25 18:56 | 47.92934 | -13.77453 | 35207 ft | 502 kts | 99° |
| 2026-04-25 18:57 | 47.92275 | -13.67074 | 35207 ft | 502 kts | 99° |
| 2026-04-25 18:57 | 47.91607 | -13.56695 | 35212 ft | 503 kts | 99° |
| 2026-04-25 18:58 | 47.90928 | -13.46314 | 35211 ft | 503 kts | 100° |
| 2026-04-25 18:58 | 47.89893 | -13.30745 | 35212 ft | 504 kts | 100° |
| 2026-04-25 18:59 | 47.88482 | -13.10016 | 35217 ft | 504 kts | 100° |
| 2026-04-25 19:00 | 47.87514 | -12.96116 | 35216 ft | 504 kts | 100° |
| 2026-04-25 19:01 | 47.86408 | -12.80520 | 35221 ft | 505 kts | 100° |
| 2026-04-25 19:01 | 47.85659 | -12.70131 | 35219 ft | 504 kts | 100° |
| 2026-04-25 19:02 | 47.84524 | -12.54635 | 35221 ft | 504 kts | 100° |
| 2026-04-25 19:03 | 47.83488 | -12.40739 | 35222 ft | 505 kts | 101° |
| 2026-04-25 19:03 | 47.82575 | -12.28674 | 35220 ft | 505 kts | 101° |
| 2026-04-25 19:04 | 47.81376 | -12.13085 | 35226 ft | 505 kts | 101° |
| 2026-04-25 19:05 | 47.79744 | -11.92313 | 35220 ft | 505 kts | 101° |
| 2026-04-25 19:06 | 47.78914 | -11.81933 | 35222 ft | 505 kts | 101° |
| 2026-04-25 19:06 | 47.77651 | -11.66362 | 35225 ft | 505 kts | 101° |
| 2026-04-25 19:07 | 47.76370 | -11.50827 | 35226 ft | 504 kts | 101° |
| 2026-04-25 19:08 | 47.75070 | -11.35320 | 35224 ft | 504 kts | 101° |
| 2026-04-25 19:09 | 47.73455 | -11.16417 | 35225 ft | 503 kts | 101° |
| 2026-04-25 19:10 | 47.71966 | -10.99312 | 35229 ft | 502 kts | 102° |
| 2026-04-25 19:10 | 47.71052 | -10.88965 | 35231 ft | 502 kts | 102° |
| 2026-04-25 19:11 | 47.70143 | -10.78773 | 35230 ft | 502 kts | 102° |
| 2026-04-25 19:11 | 47.69218 | -10.68501 | 35226 ft | 502 kts | 102° |
| 2026-04-25 19:12 | 47.68281 | -10.58222 | 35228 ft | 503 kts | 102° |
| 2026-04-25 19:12 | 47.67336 | -10.47945 | 35234 ft | 503 kts | 102° |
| 2026-04-25 19:13 | 47.66380 | -10.37647 | 35226 ft | 503 kts | 102° |
| 2026-04-25 19:13 | 47.65415 | -10.27360 | 35239 ft | 504 kts | 102° |
| 2026-04-25 19:14 | 47.64439 | -10.17064 | 35237 ft | 504 kts | 102° |
| 2026-04-25 19:14 | 47.63455 | -10.06779 | 35233 ft | 504 kts | 102° |
| 2026-04-25 19:15 | 47.62461 | -9.96492 | 35234 ft | 504 kts | 102° |
| 2026-04-25 19:15 | 47.61464 | -9.86267 | 35232 ft | 505 kts | 102° |
| 2026-04-25 19:16 | 47.60450 | -9.75969 | 35235 ft | 505 kts | 102° |
| 2026-04-25 19:16 | 47.59424 | -9.65654 | 35234 ft | 506 kts | 102° |
| 2026-04-25 19:17 | 47.58391 | -9.55352 | 35235 ft | 506 kts | 102° |
| 2026-04-25 19:17 | 47.57346 | -9.45042 | 35235 ft | 506 kts | 102° |
| 2026-04-25 19:18 | 47.56291 | -9.34719 | 35236 ft | 507 kts | 102° |
| 2026-04-25 19:18 | 47.55227 | -9.24403 | 35237 ft | 507 kts | 101° |
| 2026-04-25 19:19 | 47.54154 | -9.14090 | 35237 ft | 507 kts | 101° |
| 2026-04-25 19:19 | 47.53072 | -9.03781 | 35239 ft | 507 kts | 101° |
| 2026-04-25 19:20 | 47.51978 | -8.93458 | 35241 ft | 508 kts | 101° |
| 2026-04-25 19:20 | 47.50876 | -8.83129 | 35233 ft | 508 kts | 101° |
| 2026-04-25 19:21 | 47.49954 | -8.72754 | 35238 ft | 511 kts | 95° |
| 2026-04-25 19:21 | 47.49993 | -8.56962 | 35241 ft | 513 kts | 91° |
| 2026-04-25 19:22 | 47.50055 | -8.46484 | 35235 ft | 513 kts | 91° |
| 2026-04-25 19:23 | 47.50060 | -8.30659 | 35237 ft | 513 kts | 91° |
| 2026-04-25 19:23 | 47.50037 | -8.14817 | 35240 ft | 514 kts | 91° |
| 2026-04-25 19:24 | 47.50014 | -8.04252 | 35238 ft | 514 kts | 91° |
| 2026-04-25 19:25 | 47.50895 | -7.83187 | 35237 ft | 513 kts | 85° |
| 2026-04-25 19:25 | 47.51529 | -7.72678 | 35236 ft | 513 kts | 85° |
| 2026-04-25 19:26 | 47.52123 | -7.62174 | 35235 ft | 512 kts | 86° |
| 2026-04-25 19:26 | 47.52691 | -7.51653 | 35235 ft | 512 kts | 86° |
| 2026-04-25 19:27 | 47.53153 | -7.42910 | 35235 ft | 512 kts | 86° |
| 2026-04-25 19:27 | 47.53787 | -7.30700 | 35236 ft | 512 kts | 86° |
| 2026-04-25 19:28 | 47.54326 | -7.20172 | 35236 ft | 512 kts | 86° |
| 2026-04-25 19:28 | 47.54854 | -7.09663 | 35237 ft | 512 kts | 86° |
| 2026-04-25 19:29 | 47.55372 | -6.99162 | 35237 ft | 511 kts | 86° |
| 2026-04-25 19:29 | 47.55881 | -6.88656 | 35236 ft | 511 kts | 86° |
| 2026-04-25 19:30 | 47.56378 | -6.78181 | 35238 ft | 510 kts | 86° |
| 2026-04-25 19:30 | 47.56863 | -6.67774 | 35233 ft | 510 kts | 86° |
| 2026-04-25 19:31 | 47.57340 | -6.57309 | 35232 ft | 509 kts | 86° |
| 2026-04-25 19:31 | 47.57811 | -6.46786 | 35232 ft | 508 kts | 86° |
| 2026-04-25 19:32 | 47.58268 | -6.36344 | 35233 ft | 508 kts | 86° |
| 2026-04-25 19:32 | 47.58566 | -6.29423 | 35229 ft | 508 kts | 86° |
| 2026-04-25 19:33 | 47.59152 | -6.15530 | 35229 ft | 508 kts | 86° |
| 2026-04-25 19:33 | 47.59580 | -6.05100 | 35224 ft | 507 kts | 86° |
| 2026-04-25 19:34 | 47.59999 | -5.94670 | 35226 ft | 506 kts | 86° |
| 2026-04-25 19:34 | 47.60408 | -5.84253 | 35226 ft | 506 kts | 86° |
| 2026-04-25 19:35 | 47.60807 | -5.73827 | 35225 ft | 506 kts | 86° |
| 2026-04-25 19:35 | 47.61197 | -5.63415 | 35220 ft | 506 kts | 86° |
| 2026-04-25 19:36 | 47.61577 | -5.52999 | 35217 ft | 506 kts | 86° |
| 2026-04-25 19:36 | 47.61948 | -5.42589 | 35217 ft | 505 kts | 86° |
| 2026-04-25 19:37 | 47.62309 | -5.32187 | 35217 ft | 505 kts | 86° |
| 2026-04-25 19:37 | 47.62660 | -5.21782 | 35213 ft | 505 kts | 86° |
| 2026-04-25 19:38 | 47.63002 | -5.11377 | 35212 ft | 505 kts | 86° |
| 2026-04-25 19:38 | 47.63335 | -5.00975 | 35210 ft | 505 kts | 86° |
| 2026-04-25 19:39 | 47.63656 | -4.90630 | 35203 ft | 505 kts | 86° |
| 2026-04-25 19:39 | 47.63970 | -4.80215 | 35201 ft | 505 kts | 86° |
| 2026-04-25 19:40 | 47.64275 | -4.69798 | 35197 ft | 505 kts | 86° |
| 2026-04-25 19:40 | 47.64570 | -4.59389 | 35192 ft | 505 kts | 86° |
| 2026-04-25 19:41 | 47.64855 | -4.48984 | 35185 ft | 505 kts | 86° |
| 2026-04-25 19:41 | 47.65039 | -4.42095 | 35181 ft | 505 kts | 86° |
| 2026-04-25 19:42 | 47.65398 | -4.28167 | 35178 ft | 505 kts | 86° |
| 2026-04-25 19:42 | 47.65655 | -4.17752 | 35167 ft | 505 kts | 86° |
| 2026-04-25 19:43 | 47.65903 | -4.07337 | 35166 ft | 505 kts | 86° |
| 2026-04-25 19:43 | 47.66142 | -3.96911 | 35362 ft | 507 kts | 86° |
| 2026-04-25 19:44 | 47.66257 | -3.91696 | 35762 ft | 504 kts | 86° |
| 2026-04-25 19:44 | 47.66369 | -3.86522 | 36219 ft | 500 kts | 86° |
| 2026-04-25 19:44 | 47.66477 | -3.81444 | 36651 ft | 498 kts | 86° |
| 2026-04-25 19:44 | 47.66584 | -3.76320 | 37029 ft | 496 kts | 86° |
| 2026-04-25 19:45 | 47.66792 | -3.66076 | 37160 ft | 497 kts | 86° |
| 2026-04-25 19:45 | 47.66990 | -3.55824 | 37151 ft | 496 kts | 86° |
| 2026-04-25 19:46 | 47.67148 | -3.47269 | 37155 ft | 494 kts | 86° |
| 2026-04-25 19:46 | 47.67327 | -3.37143 | 37154 ft | 494 kts | 86° |
| 2026-04-25 19:47 | 47.67498 | -3.26963 | 37156 ft | 494 kts | 86° |
| 2026-04-25 19:47 | 47.67660 | -3.16781 | 37166 ft | 494 kts | 86° |
| 2026-04-25 19:48 | 47.67813 | -3.06600 | 37156 ft | 493 kts | 86° |
| 2026-04-25 19:48 | 47.67957 | -2.96420 | 37159 ft | 493 kts | 86° |
| 2026-04-25 19:49 | 47.68070 | -2.87968 | 37168 ft | 493 kts | 86° |
| 2026-04-25 19:49 | 47.68218 | -2.76084 | 37155 ft | 493 kts | 87° |
| 2026-04-25 19:50 | 47.68392 | -2.60839 | 37159 ft | 493 kts | 87° |
| 2026-04-25 19:51 | 47.68688 | -2.50678 | 37160 ft | 491 kts | 81° |
| 2026-04-25 19:51 | 47.70044 | -2.40879 | 37160 ft | 488 kts | 72° |
| 2026-04-25 19:52 | 47.71841 | -2.31155 | 37154 ft | 488 kts | 72° |
| 2026-04-25 19:52 | 47.73630 | -2.21410 | 37153 ft | 488 kts | 72° |
| 2026-04-25 19:53 | 47.75378 | -2.11645 | 37148 ft | 489 kts | 73° |
| 2026-04-25 19:53 | 47.77103 | -2.01866 | 37155 ft | 489 kts | 73° |
| 2026-04-25 19:54 | 47.78819 | -1.92078 | 37157 ft | 490 kts | 73° |
| 2026-04-25 19:54 | 47.80522 | -1.82318 | 37161 ft | 490 kts | 73° |
| 2026-04-25 19:55 | 47.82226 | -1.72499 | 37158 ft | 490 kts | 73° |
| 2026-04-25 19:55 | 47.83923 | -1.62682 | 37158 ft | 490 kts | 73° |
| 2026-04-25 19:56 | 47.85640 | -1.52867 | 37160 ft | 490 kts | 73° |
| 2026-04-25 19:56 | 47.87359 | -1.43046 | 37164 ft | 490 kts | 73° |
| 2026-04-25 19:57 | 47.89066 | -1.33222 | 37161 ft | 490 kts | 74° |
| 2026-04-25 19:57 | 47.90760 | -1.23399 | 37165 ft | 490 kts | 74° |
| 2026-04-25 19:58 | 47.92446 | -1.13560 | 37161 ft | 489 kts | 74° |
| 2026-04-25 19:58 | 47.94110 | -1.03796 | 37160 ft | 489 kts | 74° |
| 2026-04-25 19:59 | 47.95789 | -0.93888 | 37156 ft | 489 kts | 74° |
| 2026-04-25 19:59 | 47.97441 | -0.84084 | 37159 ft | 489 kts | 74° |
| 2026-04-25 20:00 | 47.99087 | -0.74262 | 37160 ft | 489 kts | 75° |
| 2026-04-25 20:00 | 48.00730 | -0.64398 | 37161 ft | 489 kts | 75° |
| 2026-04-25 20:01 | 48.03175 | -0.49614 | 37159 ft | 488 kts | 75° |
| 2026-04-25 20:01 | 48.04796 | -0.39739 | 37161 ft | 489 kts | 75° |
| 2026-04-25 20:02 | 48.06397 | -0.29933 | 37159 ft | 488 kts | 75° |
| 2026-04-25 20:02 | 48.07998 | -0.20062 | 37155 ft | 488 kts | 75° |
| 2026-04-25 20:03 | 48.09589 | -0.10204 | 37163 ft | 487 kts | 75° |
| 2026-04-25 20:03 | 48.11170 | -0.00347 | 37158 ft | 488 kts | 75° |
| 2026-04-25 20:04 | 48.12745 | 0.09532 | 37161 ft | 488 kts | 75° |
| 2026-04-25 20:04 | 48.14316 | 0.19451 | 37159 ft | 488 kts | 75° |
| 2026-04-25 20:05 | 48.15871 | 0.29324 | 37157 ft | 488 kts | 75° |
| 2026-04-25 20:05 | 48.17420 | 0.39218 | 37159 ft | 488 kts | 76° |
| 2026-04-25 20:06 | 48.18962 | 0.49124 | 37161 ft | 488 kts | 76° |
| 2026-04-25 20:06 | 48.20495 | 0.59038 | 37162 ft | 489 kts | 76° |
| 2026-04-25 20:07 | 48.22022 | 0.68974 | 37166 ft | 489 kts | 76° |
| 2026-04-25 20:07 | 48.23541 | 0.78920 | 37166 ft | 489 kts | 76° |
| 2026-04-25 20:08 | 48.25053 | 0.88884 | 37167 ft | 490 kts | 76° |
| 2026-04-25 20:08 | 48.26555 | 0.98844 | 37171 ft | 490 kts | 76° |
| 2026-04-25 20:09 | 48.28052 | 1.08829 | 37168 ft | 490 kts | 77° |
| 2026-04-25 20:09 | 48.29531 | 1.18758 | 37169 ft | 491 kts | 77° |
| 2026-04-25 20:10 | 48.31012 | 1.28768 | 37170 ft | 491 kts | 77° |
| 2026-04-25 20:10 | 48.32489 | 1.38812 | 37168 ft | 492 kts | 77° |
| 2026-04-25 20:11 | 48.33954 | 1.48846 | 37170 ft | 492 kts | 77° |
| 2026-04-25 20:11 | 48.35417 | 1.58925 | 37163 ft | 493 kts | 77° |
| 2026-04-25 20:12 | 48.36870 | 1.69005 | 37171 ft | 494 kts | 77° |
| 2026-04-25 20:12 | 48.37830 | 1.75700 | 37169 ft | 494 kts | 78° |
| 2026-04-25 20:13 | 48.39755 | 1.89219 | 37168 ft | 494 kts | 78° |
| 2026-04-25 20:13 | 48.41188 | 1.99360 | 37173 ft | 495 kts | 78° |
| 2026-04-25 20:14 | 48.42601 | 2.09432 | 37173 ft | 495 kts | 78° |
| 2026-04-25 20:14 | 48.44014 | 2.19569 | 37175 ft | 495 kts | 78° |
| 2026-04-25 20:15 | 48.45420 | 2.29726 | 37173 ft | 495 kts | 78° |
| 2026-04-25 20:15 | 48.46817 | 2.39891 | 37185 ft | 496 kts | 78° |
| 2026-04-25 20:16 | 48.48130 | 2.50082 | 37175 ft | 496 kts | 83° |
| 2026-04-25 20:16 | 48.48320 | 2.60456 | 37183 ft | 495 kts | 95° |
| 2026-04-25 20:17 | 48.47641 | 2.70799 | 37186 ft | 496 kts | 97° |
| 2026-04-25 20:17 | 48.46915 | 2.81140 | 37182 ft | 496 kts | 96° |
| 2026-04-25 20:18 | 48.46218 | 2.91476 | 37177 ft | 496 kts | 96° |
| 2026-04-25 20:18 | 48.45536 | 3.01822 | 37176 ft | 496 kts | 96° |
| 2026-04-25 20:19 | 48.44855 | 3.12110 | 37172 ft | 497 kts | 96° |
| 2026-04-25 20:19 | 48.44159 | 3.22461 | 37172 ft | 497 kts | 96° |
| 2026-04-25 20:20 | 48.43450 | 3.32827 | 37171 ft | 497 kts | 96° |
| 2026-04-25 20:20 | 48.42731 | 3.43191 | 37173 ft | 497 kts | 97° |
| 2026-04-25 20:21 | 48.42003 | 3.53557 | 37172 ft | 498 kts | 97° |
| 2026-04-25 20:21 | 48.41265 | 3.63927 | 37170 ft | 498 kts | 97° |
| 2026-04-25 20:22 | 48.40751 | 3.70789 | 37172 ft | 498 kts | 97° |
| 2026-04-25 20:22 | 48.39710 | 3.84568 | 37175 ft | 498 kts | 97° |
| 2026-04-25 20:23 | 48.38944 | 3.94917 | 37174 ft | 498 kts | 97° |
| 2026-04-25 20:23 | 48.38176 | 4.05270 | 37177 ft | 498 kts | 97° |
| 2026-04-25 20:24 | 48.37425 | 4.15638 | 37176 ft | 498 kts | 97° |
| 2026-04-25 20:24 | 48.36654 | 4.26000 | 37171 ft | 498 kts | 97° |
| 2026-04-25 20:25 | 48.35860 | 4.36284 | 37172 ft | 498 kts | 97° |
| 2026-04-25 20:25 | 48.35045 | 4.46634 | 37169 ft | 498 kts | 97° |
| 2026-04-25 20:26 | 48.34220 | 4.56988 | 37168 ft | 498 kts | 97° |
| 2026-04-25 20:26 | 48.33388 | 4.67331 | 37169 ft | 498 kts | 97° |
| 2026-04-25 20:27 | 48.32548 | 4.77668 | 37167 ft | 499 kts | 97° |
| 2026-04-25 20:27 | 48.31697 | 4.88015 | 37167 ft | 499 kts | 97° |
| 2026-04-25 20:28 | 48.30838 | 4.98349 | 37166 ft | 498 kts | 97° |
| 2026-04-25 20:28 | 48.29971 | 5.08679 | 37163 ft | 499 kts | 97° |
| 2026-04-25 20:29 | 48.29581 | 5.19068 | 37162 ft | 499 kts | 87° |
| 2026-04-25 20:29 | 48.30216 | 5.29438 | 37174 ft | 499 kts | 84° |
| 2026-04-25 20:30 | 48.30947 | 5.39812 | 37159 ft | 499 kts | 84° |
| 2026-04-25 20:30 | 48.31637 | 5.50179 | 37161 ft | 499 kts | 84° |
| 2026-04-25 20:31 | 48.32286 | 5.60483 | 37161 ft | 499 kts | 84° |
| 2026-04-25 20:31 | 48.32922 | 5.70867 | 37160 ft | 499 kts | 84° |
| 2026-04-25 20:32 | 48.33550 | 5.81246 | 37157 ft | 499 kts | 84° |
| 2026-04-25 20:32 | 48.34170 | 5.91633 | 37160 ft | 499 kts | 84° |
| 2026-04-25 20:33 | 48.34781 | 6.02016 | 37161 ft | 499 kts | 84° |
| 2026-04-25 20:33 | 48.35186 | 6.08985 | 37157 ft | 499 kts | 84° |
| 2026-04-25 20:34 | 48.35877 | 6.21066 | 37157 ft | 499 kts | 84° |
| 2026-04-25 20:34 | 48.36462 | 6.31460 | 37156 ft | 499 kts | 84° |
| 2026-04-25 20:35 | 48.37037 | 6.41858 | 37150 ft | 499 kts | 84° |
| 2026-04-25 20:35 | 48.37695 | 6.53960 | 37149 ft | 500 kts | 84° |
| 2026-04-25 20:36 | 48.38162 | 6.62680 | 37151 ft | 500 kts | 84° |
| 2026-04-25 20:36 | 48.38710 | 6.73105 | 37147 ft | 500 kts | 84° |
| 2026-04-25 20:37 | 48.39250 | 6.83554 | 37150 ft | 500 kts | 84° |
| 2026-04-25 20:37 | 48.39776 | 6.93914 | 37143 ft | 500 kts | 84° |
| 2026-04-25 20:38 | 48.40295 | 7.04335 | 37148 ft | 499 kts | 84° |
| 2026-04-25 20:38 | 48.40806 | 7.14762 | 37143 ft | 500 kts | 84° |
| 2026-04-25 20:39 | 48.41308 | 7.25206 | 37146 ft | 500 kts | 85° |
| 2026-04-25 20:39 | 48.41720 | 7.33940 | 37136 ft | 500 kts | 85° |
| 2026-04-25 20:40 | 48.42281 | 7.46063 | 37132 ft | 499 kts | 84° |
| 2026-04-25 20:40 | 48.42754 | 7.56493 | 37136 ft | 499 kts | 85° |
| 2026-04-25 20:41 | 48.43218 | 7.66920 | 37131 ft | 499 kts | 85° |
| 2026-04-25 20:41 | 48.43422 | 7.77370 | 37132 ft | 500 kts | 92° |
| 2026-04-25 20:42 | 48.42956 | 7.87825 | 37133 ft | 501 kts | 93° |
| 2026-04-25 20:42 | 48.42429 | 7.98289 | 37132 ft | 500 kts | 93° |
| 2026-04-25 20:43 | 48.41927 | 8.08750 | 37137 ft | 500 kts | 92° |
| 2026-04-25 20:43 | 48.41447 | 8.19123 | 37134 ft | 500 kts | 92° |
| 2026-04-25 20:44 | 48.40960 | 8.29562 | 37144 ft | 500 kts | 92° |
| 2026-04-25 20:44 | 48.40460 | 8.40012 | 37143 ft | 500 kts | 92° |
| 2026-04-25 20:45 | 48.39948 | 8.50460 | 37143 ft | 500 kts | 92° |
| 2026-04-25 20:45 | 48.39428 | 8.60894 | 37144 ft | 501 kts | 92° |
| 2026-04-25 20:46 | 48.38898 | 8.71344 | 37147 ft | 501 kts | 92° |
| 2026-04-25 20:46 | 48.38357 | 8.81796 | 37144 ft | 501 kts | 92° |
| 2026-04-25 20:47 | 48.37807 | 8.92241 | 37146 ft | 500 kts | 92° |
| 2026-04-25 20:47 | 48.37249 | 9.02684 | 37143 ft | 500 kts | 92° |
| 2026-04-25 20:48 | 48.36685 | 9.13040 | 37140 ft | 500 kts | 92° |
| 2026-04-25 20:48 | 48.36107 | 9.23471 | 37142 ft | 500 kts | 92° |
| 2026-04-25 20:49 | 48.35521 | 9.33897 | 37138 ft | 501 kts | 93° |
| 2026-04-25 20:49 | 48.34925 | 9.44336 | 37143 ft | 501 kts | 93° |
| 2026-04-25 20:50 | 48.34321 | 9.54757 | 37141 ft | 500 kts | 93° |
| 2026-04-25 20:50 | 48.33508 | 9.65145 | 37133 ft | 502 kts | 99° |
| 2026-04-25 20:51 | 48.32000 | 9.75320 | 37141 ft | 503 kts | 101° |
| 2026-04-25 20:51 | 48.30404 | 9.85571 | 37134 ft | 503 kts | 101° |
| 2026-04-25 20:52 | 48.29099 | 9.94072 | 37130 ft | 503 kts | 101° |
| 2026-04-25 20:52 | 48.27291 | 10.05994 | 37133 ft | 503 kts | 101° |
| 2026-04-25 20:53 | 48.25738 | 10.16222 | 37133 ft | 503 kts | 101° |
| 2026-04-25 20:53 | 48.24171 | 10.26467 | 37130 ft | 504 kts | 101° |
| 2026-04-25 20:54 | 48.22594 | 10.36698 | 37143 ft | 503 kts | 101° |
| 2026-04-25 20:54 | 48.21008 | 10.46922 | 37118 ft | 503 kts | 101° |
| 2026-04-25 20:55 | 48.19413 | 10.57140 | 37125 ft | 503 kts | 102° |
| 2026-04-25 20:55 | 48.17807 | 10.67360 | 37135 ft | 504 kts | 102° |
| 2026-04-25 20:56 | 48.16193 | 10.77566 | 37136 ft | 504 kts | 102° |
| 2026-04-25 20:56 | 48.14568 | 10.87781 | 37128 ft | 504 kts | 102° |
| 2026-04-25 20:57 | 48.12937 | 10.97972 | 37128 ft | 504 kts | 102° |
| 2026-04-25 20:57 | 48.11305 | 11.08110 | 37131 ft | 504 kts | 102° |
| 2026-04-25 20:58 | 48.09653 | 11.18306 | 37143 ft | 504 kts | 102° |
| 2026-04-25 20:58 | 48.07991 | 11.28496 | 37125 ft | 504 kts | 102° |
| 2026-04-25 20:59 | 48.06321 | 11.38679 | 37141 ft | 504 kts | 102° |
| 2026-04-25 20:59 | 48.04641 | 11.48865 | 37127 ft | 505 kts | 102° |
| 2026-04-25 21:00 | 48.03513 | 11.55669 | 37125 ft | 504 kts | 102° |
| 2026-04-25 21:01 | 48.00402 | 11.74288 | 37114 ft | 505 kts | 102° |
| 2026-04-25 21:01 | 47.98703 | 11.84371 | 36825 ft | 494 kts | 102° |
| 2026-04-25 21:01 | 47.97865 | 11.89323 | 36255 ft | 491 kts | 102° |
| 2026-04-25 21:02 | 47.97023 | 11.94287 | 35374 ft | 495 kts | 102° |
| 2026-04-25 21:02 | 47.96169 | 11.99314 | 34413 ft | 501 kts | 102° |
| 2026-04-25 21:02 | 47.95332 | 12.04307 | 33598 ft | 503 kts | 100° |
| 2026-04-25 21:02 | 47.94742 | 12.09431 | 33340 ft | 499 kts | 94° |
| 2026-04-25 21:03 | 47.94491 | 12.14599 | 33237 ft | 501 kts | 88° |
| 2026-04-25 21:03 | 47.94510 | 12.25006 | 33106 ft | 503 kts | 87° |
| 2026-04-25 21:04 | 47.94533 | 12.35466 | 33112 ft | 505 kts | 87° |
| 2026-04-25 21:04 | 47.94514 | 12.45934 | 33111 ft | 504 kts | 87° |
| 2026-04-25 21:05 | 47.94466 | 12.56403 | 33097 ft | 504 kts | 88° |
| 2026-04-25 21:05 | 47.94405 | 12.66854 | 33115 ft | 504 kts | 88° |
| 2026-04-25 21:06 | 47.94337 | 12.77303 | 33095 ft | 504 kts | 88° |
| 2026-04-25 21:06 | 47.94262 | 12.87753 | 33105 ft | 504 kts | 88° |
| 2026-04-25 21:07 | 47.94177 | 12.98133 | 33100 ft | 504 kts | 88° |
| 2026-04-25 21:07 | 47.94082 | 13.08582 | 33102 ft | 504 kts | 88° |
| 2026-04-25 21:08 | 47.93979 | 13.19016 | 33093 ft | 503 kts | 88° |
| 2026-04-25 21:08 | 47.93864 | 13.29462 | 33090 ft | 504 kts | 88° |
| 2026-04-25 21:09 | 47.93675 | 13.45103 | 33084 ft | 503 kts | 88° |
| 2026-04-25 21:09 | 47.93539 | 13.55532 | 33082 ft | 503 kts | 88° |
| 2026-04-25 21:10 | 47.93468 | 13.60736 | 32864 ft | 502 kts | 88° |
| 2026-04-25 21:10 | 47.93393 | 13.65925 | 32523 ft | 498 kts | 88° |
| 2026-04-25 21:10 | 47.93316 | 13.71071 | 32241 ft | 495 kts | 89° |
| 2026-04-25 21:10 | 47.93237 | 13.76194 | 31952 ft | 492 kts | 89° |
| 2026-04-25 21:11 | 47.93158 | 13.81269 | 31673 ft | 489 kts | 89° |
| 2026-04-25 21:11 | 47.93077 | 13.86330 | 31410 ft | 487 kts | 89° |
| 2026-04-25 21:11 | 47.92993 | 13.91379 | 31133 ft | 485 kts | 89° |
| 2026-04-25 21:11 | 47.92910 | 13.96313 | 30865 ft | 483 kts | 89° |
| 2026-04-25 21:12 | 47.92823 | 14.01376 | 30584 ft | 480 kts | 89° |
| 2026-04-25 21:12 | 47.92735 | 14.06273 | 30334 ft | 478 kts | 89° |
| 2026-04-25 21:12 | 47.92645 | 14.11223 | 30012 ft | 477 kts | 89° |
| 2026-04-25 21:12 | 47.92614 | 14.12896 | 29872 ft | 478 kts | 89° |
| 2026-04-25 21:13 | 47.92459 | 14.21161 | 29178 ft | 482 kts | 89° |
| 2026-04-25 21:13 | 47.92362 | 14.26159 | 28801 ft | 483 kts | 89° |
| 2026-04-25 21:13 | 47.92269 | 14.31172 | 28373 ft | 485 kts | 89° |
| 2026-04-25 21:13 | 47.92165 | 14.36201 | 27963 ft | 486 kts | 90° |
| 2026-04-25 21:14 | 47.92057 | 14.41233 | 27689 ft | 485 kts | 90° |
| 2026-04-25 21:14 | 47.91949 | 14.46253 | 27458 ft | 483 kts | 90° |
| 2026-04-25 21:14 | 47.91838 | 14.51242 | 27220 ft | 481 kts | 90° |
| 2026-04-25 21:14 | 47.91726 | 14.56217 | 26826 ft | 479 kts | 90° |
| 2026-04-25 21:15 | 47.91615 | 14.61158 | 26212 ft | 476 kts | 90° |
| 2026-04-25 21:15 | 47.91502 | 14.66066 | 25636 ft | 471 kts | 90° |
| 2026-04-25 21:15 | 47.91390 | 14.70918 | 25046 ft | 467 kts | 90° |
| 2026-04-25 21:15 | 47.91275 | 14.75742 | 24467 ft | 463 kts | 90° |
| 2026-04-25 21:16 | 47.91159 | 14.80516 | 23923 ft | 460 kts | 91° |
| 2026-04-25 21:16 | 47.91042 | 14.85268 | 23274 ft | 457 kts | 91° |
| 2026-04-25 21:16 | 47.90924 | 14.89976 | 22653 ft | 454 kts | 91° |
| 2026-04-25 21:16 | 47.90803 | 14.94664 | 22062 ft | 450 kts | 91° |
| 2026-04-25 21:17 | 47.90683 | 14.99309 | 21497 ft | 446 kts | 91° |
| 2026-04-25 21:17 | 47.90563 | 15.03848 | 20938 ft | 442 kts | 91° |
| 2026-04-25 21:17 | 47.90443 | 15.08388 | 20400 ft | 439 kts | 91° |
| 2026-04-25 21:17 | 47.90319 | 15.12948 | 19846 ft | 437 kts | 91° |
| 2026-04-25 21:18 | 47.90194 | 15.17516 | 19290 ft | 434 kts | 91° |
| 2026-04-25 21:18 | 47.90071 | 15.21948 | 18762 ft | 432 kts | 91° |
| 2026-04-25 21:18 | 47.89946 | 15.26401 | 18194 ft | 429 kts | 91° |
| 2026-04-25 21:18 | 47.89820 | 15.30830 | 17574 ft | 427 kts | 91° |
| 2026-04-25 21:19 | 47.89693 | 15.35235 | 17229 ft | 423 kts | 91° |
| 2026-04-25 21:19 | 47.89590 | 15.39606 | 17110 ft | 423 kts | 90° |
| 2026-04-25 21:19 | 47.89511 | 15.44004 | 16613 ft | 424 kts | 90° |
| 2026-04-25 21:19 | 47.89426 | 15.48386 | 16279 ft | 421 kts | 90° |
| 2026-04-25 21:20 | 47.89300 | 15.52734 | 16004 ft | 419 kts | 91° |
| 2026-04-25 21:20 | 47.89252 | 15.54199 | 15911 ft | 419 kts | 91° |
| 2026-04-25 21:20 | 47.89005 | 15.61381 | 15485 ft | 416 kts | 91° |
| 2026-04-25 21:20 | 47.88858 | 15.65687 | 15220 ft | 416 kts | 91° |
| 2026-04-25 21:21 | 47.88713 | 15.69984 | 14957 ft | 415 kts | 91° |
| 2026-04-25 21:21 | 47.88570 | 15.74272 | 14707 ft | 413 kts | 91° |
| 2026-04-25 21:21 | 47.88475 | 15.77096 | 14524 ft | 412 kts | 91° |
| 2026-04-25 21:21 | 47.88333 | 15.81355 | 14284 ft | 412 kts | 91° |
| 2026-04-25 21:22 | 47.88189 | 15.85614 | 14028 ft | 410 kts | 91° |
| 2026-04-25 21:22 | 47.88045 | 15.89849 | 13766 ft | 408 kts | 91° |
| 2026-04-25 21:22 | 47.87901 | 15.94054 | 13485 ft | 406 kts | 91° |
| 2026-04-25 21:22 | 47.87857 | 15.98244 | 13223 ft | 404 kts | 88° |
| 2026-04-25 21:23 | 47.87896 | 16.02417 | 12968 ft | 401 kts | 87° |
| 2026-04-25 21:23 | 47.87948 | 16.06561 | 12704 ft | 401 kts | 87° |
| 2026-04-25 21:23 | 47.88003 | 16.10704 | 12480 ft | 399 kts | 87° |
| 2026-04-25 21:23 | 47.88062 | 16.14819 | 12227 ft | 396 kts | 87° |
| 2026-04-25 21:24 | 47.88123 | 16.18910 | 11971 ft | 394 kts | 87° |
| 2026-04-25 21:24 | 47.88181 | 16.22982 | 11742 ft | 393 kts | 87° |
| 2026-04-25 21:24 | 47.88241 | 16.27048 | 11498 ft | 392 kts | 87° |
| 2026-04-25 21:24 | 47.88300 | 16.31097 | 11264 ft | 391 kts | 87° |
| 2026-04-25 21:25 | 47.88357 | 16.35048 | 11033 ft | 382 kts | 87° |
| 2026-04-25 21:25 | 47.88412 | 16.38965 | 10791 ft | 372 kts | 87° |
| 2026-04-25 21:25 | 47.88463 | 16.42768 | 10559 ft | 363 kts | 87° |
| 2026-04-25 21:25 | 47.88511 | 16.46475 | 10346 ft | 354 kts | 87° |
| 2026-04-25 21:26 | 47.88588 | 16.50106 | 10125 ft | 346 kts | 85° |
| 2026-04-25 21:26 | 47.88728 | 16.53644 | 9920 ft | 338 kts | 84° |
| 2026-04-25 21:26 | 47.88872 | 16.57058 | 9887 ft | 324 kts | 84° |
| 2026-04-25 21:26 | 47.89014 | 16.60400 | 9540 ft | 321 kts | 84° |
| 2026-04-25 21:27 | 47.89156 | 16.63685 | 9330 ft | 314 kts | 84° |
| 2026-04-25 21:27 | 47.89299 | 16.66897 | 9129 ft | 307 kts | 84° |
| 2026-04-25 21:27 | 47.89437 | 16.70054 | 8942 ft | 303 kts | 84° |
| 2026-04-25 21:27 | 47.89575 | 16.73168 | 8763 ft | 300 kts | 84° |
| 2026-04-25 21:28 | 47.89710 | 16.76267 | 8587 ft | 299 kts | 84° |
| 2026-04-25 21:28 | 47.89844 | 16.79322 | 8497 ft | 291 kts | 84° |
| 2026-04-25 21:28 | 47.89972 | 16.82270 | 8406 ft | 281 kts | 84° |
| 2026-04-25 21:28 | 47.90094 | 16.85138 | 8270 ft | 272 kts | 84° |
| 2026-04-25 21:29 | 47.90157 | 16.87909 | 8033 ft | 265 kts | 95° |
| 2026-04-25 21:29 | 47.89490 | 16.90450 | 7628 ft | 265 kts | 124° |
| 2026-04-25 21:29 | 47.88470 | 16.92722 | 7329 ft | 261 kts | 122° |
| 2026-04-25 21:29 | 47.87573 | 16.95009 | 7355 ft | 260 kts | 119° |
| 2026-04-25 21:30 | 47.86700 | 16.97386 | 7259 ft | 263 kts | 118° |
| 2026-04-25 21:30 | 47.85841 | 16.99785 | 7132 ft | 261 kts | 118° |
| 2026-04-25 21:30 | 47.85013 | 17.02143 | 6957 ft | 252 kts | 114° |
| 2026-04-25 21:30 | 47.84692 | 17.03806 | 6815 ft | 244 kts | 92° |
| 2026-04-25 21:31 | 47.85250 | 17.06833 | 6628 ft | 226 kts | 47° |
| 2026-04-25 21:31 | 47.86434 | 17.08301 | 6540 ft | 220 kts | 28° |
| 2026-04-25 21:31 | 47.87753 | 17.09475 | 6404 ft | 221 kts | 26° |
| 2026-04-25 21:31 | 47.89044 | 17.10588 | 6217 ft | 206 kts | 25° |
| 2026-04-25 21:32 | 47.90248 | 17.11637 | 6093 ft | 197 kts | 24° |
| 2026-04-25 21:32 | 47.91508 | 17.12157 | 5965 ft | 184 kts | 348° |
| 2026-04-25 21:32 | 47.92607 | 17.11348 | 5889 ft | 179 kts | 309° |
| 2026-04-25 21:32 | 47.93335 | 17.09849 | 5823 ft | 179 kts | 305° |
| 2026-04-25 21:33 | 47.94038 | 17.08316 | 5639 ft | 178 kts | 303° |
| 2026-04-25 21:33 | 47.94684 | 17.06745 | 5503 ft | 177 kts | 301° |
| 2026-04-25 21:33 | 47.95282 | 17.05139 | 5367 ft | 176 kts | 299° |
| 2026-04-25 21:33 | 47.95872 | 17.03459 | 5269 ft | 192 kts | 298° |
| 2026-04-25 21:34 | 47.98399 | 16.95855 | 4652 ft | 195 kts | 297° |
| 2026-04-25 21:35 | 47.98992 | 16.94044 | 4511 ft | 194 kts | 297° |
| 2026-04-25 21:35 | 47.99584 | 16.92234 | 4352 ft | 194 kts | 297° |
| 2026-04-25 21:35 | 48.00165 | 16.90455 | 4232 ft | 185 kts | 298° |
| 2026-04-25 21:35 | 48.00709 | 16.88792 | 4100 ft | 173 kts | 298° |
| 2026-04-25 21:36 | 48.01235 | 16.87184 | 3980 ft | 171 kts | 298° |
| 2026-04-25 21:36 | 48.01760 | 16.85581 | 3879 ft | 172 kts | 298° |
| 2026-04-25 21:36 | 48.02281 | 16.83985 | 3751 ft | 171 kts | 298° |
| 2026-04-25 21:36 | 48.02801 | 16.82393 | 3621 ft | 170 kts | 298° |
| 2026-04-25 21:37 | 48.03321 | 16.80800 | 3512 ft | 170 kts | 298° |
| 2026-04-25 21:37 | 48.03490 | 16.80284 | 3466 ft | 170 kts | 298° |
| 2026-04-25 21:37 | 48.04360 | 16.77624 | 3258 ft | 169 kts | 298° |
| 2026-04-25 21:37 | 48.04876 | 16.76042 | 3136 ft | 169 kts | 298° |
| 2026-04-25 21:38 | 48.05369 | 16.74532 | 3011 ft | 170 kts | 298° |
| 2026-04-25 21:38 | 48.05886 | 16.72946 | 2788 ft | 168 kts | 298° |
| 2026-04-25 21:38 | 48.06373 | 16.71449 | 2586 ft | 151 kts | 298° |
| 2026-04-25 21:38 | 48.06803 | 16.70129 | 2385 ft | 134 kts | 298° |
| 2026-04-25 21:39 | 48.07205 | 16.68904 | 2264 ft | 128 kts | 298° |
| 2026-04-25 21:39 | 48.07592 | 16.67717 | 2090 ft | 125 kts | 297° |
| 2026-04-25 21:39 | 48.07971 | 16.66554 | 1932 ft | 124 kts | 296° |
| 2026-04-25 21:39 | 48.08349 | 16.65393 | 1784 ft | 124 kts | 296° |
| 2026-04-25 21:40 | 48.08732 | 16.64218 | 1588 ft | 127 kts | 296° |
| 2026-04-25 21:40 | 48.09133 | 16.62987 | 1436 ft | 133 kts | 297° |
| 2026-04-25 21:40 | 48.09548 | 16.61731 | 1256 ft | 136 kts | 297° |
| 2026-04-25 21:40 | 48.09959 | 16.60491 | 1091 ft | 134 kts | 295° |
| 2026-04-25 21:41 | 48.10350 | 16.59219 | 885 ft | 134 kts | 296° |
| 2026-04-25 21:41 | 48.10778 | 16.57941 | 691 ft | 137 kts | 296° |
| 2026-04-25 21:41 | 48.11187 | 16.56674 | 626 ft | 129 kts | 297° |
| 2026-04-25 21:41 | 48.11529 | 16.55640 | 621 ft | 99 kts | 297° |
| 2026-04-25 21:42 | 48.11792 | 16.54832 | 626 ft | 69 kts | 296° |
| 2026-04-25 21:42 | 48.11973 | 16.54280 | 627 ft | 57 kts | 296° |
| 2026-04-25 21:42 | 48.12111 | 16.53985 | 627 ft | 20 kts | 340° |
| 2026-04-25 21:42 | 48.12220 | 16.54051 | 627 ft | 15 kts | 66° |
| 2026-04-25 21:43 | 48.12226 | 16.54089 | 626 ft | 0 kts | 90° |
| 2026-04-25 21:45 | 48.12224 | 16.54143 | 622 ft | 14 kts | 97° |
| 2026-04-25 21:45 | 48.12200 | 16.54242 | 624 ft | 12 kts | 115° |
| 2026-04-25 21:45 | 48.12147 | 16.54401 | 626 ft | 13 kts | 116° |
| 2026-04-25 21:45 | 48.12107 | 16.54524 | 627 ft | 14 kts | 116° |
| 2026-04-25 21:46 | 48.12057 | 16.54677 | 629 ft | 18 kts | 116° |
| 2026-04-25 21:46 | 48.11998 | 16.54858 | 626 ft | 20 kts | 115° |
| 2026-04-25 21:46 | 48.11937 | 16.55042 | 625 ft | 20 kts | 116° |
| 2026-04-25 21:46 | 48.11877 | 16.55226 | 624 ft | 20 kts | 116° |
| 2026-04-25 21:47 | 48.11816 | 16.55411 | 623 ft | 20 kts | 116° |
| 2026-04-25 21:47 | 48.11783 | 16.55514 | 618 ft | 6 kts | 115° |
| 2026-04-25 21:47 | 48.11759 | 16.55592 | 626 ft | 11 kts | 115° |
| 2026-04-25 21:47 | 48.11714 | 16.55732 | 626 ft | 20 kts | 117° |
| 2026-04-25 21:48 | 48.11635 | 16.55972 | 621 ft | 31 kts | 116° |
| 2026-04-25 21:48 | 48.11586 | 16.56153 | 626 ft | 14 kts | 89° |
| 2026-04-25 21:48 | 48.11644 | 16.56226 | 622 ft | 11 kts | 16° |
| 2026-04-25 21:48 | 48.11720 | 16.56215 | 626 ft | 10 kts | 344° |
| 2026-04-25 21:49 | 48.11751 | 16.56201 | 629 ft | 1 kts | 343° |
| 2026-04-25 21:49 | 48.11759 | 16.56198 | 629 ft | 2 kts | 344° |
| 2026-04-25 21:49 | 48.11772 | 16.56193 | 625 ft | 2 kts | 345° |
| 2026-04-25 21:49 | 48.11781 | 16.56189 | 626 ft | 1 kts | 344° |